Darstellungsparameter: Aktuell verwendete Einstellungen:
Skalierung der Graphiken ... ?
xyx+y,   Skalierungsfaktor:      Skalierung: Modus: x, Faktor: 1
Darstellungszeitraum ... ?
Vom - - bis: - -   Zeitraum: 08.05.2015 - 12.05.2015
Min/Max/Avg-Anzeige ... ?
Zeige MMA aktuell
Zeige MMA Monat
Zeige MMA alles
Zeige --A aktuell
Zeige --A Monat
Zeige --A alles
Keine MMA-Anzeige
MMA:
Average (ber die Originaldaten)
MMA-Basis: 08.05.2015 - 12.05.2015
Quicknavigation für Darstellung... ?
Tage:      1T, 2T, 3T, 5T -1T -2T -3T -5T +1T +2T +3T +5T
Wochen: 1W, 2W, 3W -1W -2W -3W +1W +2W +3W
Monate: 1M, 3M, 6M -1M -3M -6M +1M +3M +6M
Jahre:    1J, 3J, 5J, 10J -1J -3J -5J -10J +1J +3J +5J +10J
Nutze für die Darstellung ... ?
Originaldaten oder Mittelwerte auf ...
Stundenbasis Tagesbasis Wochenbasis
Monatsbasis Jahresbasis      Datenbasis: Original-Daten
Darstellen als:
Statistik (Auto) Statistik J:M      Darstellung:
Zur Graphik,    zurück zur Übersicht aller Sensoren.
 
Tabellarische Datenbersicht: ?
 
Sensor: Nr:Datum:Temp:Abs-Feuchte:Windchill:Wind:
Aussen-T/F 1 08-05-2015 00:00:00 9.2 C 6.97 g/m*3 9.2 C 0 km/h
2 08-05-2015 00:05:00 9.1 C 6.92 g/m*3 9.1 C 0 km/h
3 08-05-2015 00:10:00 9 C 6.96 g/m*3 9 C 0 km/h
4 08-05-2015 00:15:00 8.9 C 6.83 g/m*3 8.9 C 0 km/h
5 08-05-2015 00:20:00 8.8 C 6.88 g/m*3 8.8 C 0 km/h
6 08-05-2015 00:25:00 8.8 C 6.79 g/m*3 8.8 C 0 km/h
7 08-05-2015 00:30:00 8.7 C 6.75 g/m*3 8.7 C 0 km/h
8 08-05-2015 00:35:00 8.7 C 6.75 g/m*3 8.7 C 0 km/h
9 08-05-2015 00:40:00 8.6 C 6.79 g/m*3 8.6 C 0 km/h
10 08-05-2015 00:45:00 8.4 C 6.79 g/m*3 8.4 C 0 km/h
11 08-05-2015 00:50:00 8.4 C 6.79 g/m*3 8.4 C 0 km/h
12 08-05-2015 00:55:00 8.4 C 6.79 g/m*3 8.4 C 0 km/h
13 08-05-2015 01:00:00 8.4 C 6.87 g/m*3 8.4 C 0 km/h
14 08-05-2015 01:05:00 8.4 C 6.87 g/m*3 8.4 C 0 km/h
15 08-05-2015 01:10:00 8.6 C 6.96 g/m*3 8.6 C 0 km/h
16 08-05-2015 01:15:00 8.7 C 7.01 g/m*3 8.7 C 0 km/h
17 08-05-2015 01:20:00 8.8 C 7.05 g/m*3 8.8 C 0 km/h
18 08-05-2015 01:25:00 8.8 C 6.96 g/m*3 8.8 C 0 km/h
19 08-05-2015 01:30:00 8.9 C 7.1 g/m*3 8.9 C 0 km/h
20 08-05-2015 01:35:00 8.9 C 7.1 g/m*3 8.9 C 0 km/h
21 08-05-2015 01:40:00 8.8 C 7.05 g/m*3 8.8 C 0 km/h
22 08-05-2015 01:45:00 8.8 C 7.05 g/m*3 8.8 C 0 km/h
23 08-05-2015 01:50:00 8.8 C 7.14 g/m*3 8.8 C 0 km/h
24 08-05-2015 01:55:00 8.8 C 7.14 g/m*3 8.8 C 0 km/h
25 08-05-2015 02:00:00 8.8 C 7.14 g/m*3 8.8 C 0 km/h
Sensor: Nr:Datum:Temp:Abs-Feuchte:Windchill:Wind:
Aussen-T/F 26 08-05-2015 02:05:00 8.8 C 7.14 g/m*3 8.8 C 0 km/h
27 08-05-2015 02:10:00 8.8 C 7.14 g/m*3 8.8 C 0 km/h
28 08-05-2015 02:15:00 8.7 C 7.09 g/m*3 8.7 C 0 km/h
29 08-05-2015 02:20:00 8.6 C 7.05 g/m*3 8.6 C 0 km/h
30 08-05-2015 02:25:00 8.5 C 7.09 g/m*3 8.5 C 0 km/h
31 08-05-2015 02:30:00 8.4 C 7.04 g/m*3 8.4 C 0 km/h
32 08-05-2015 02:35:00 8.4 C 7.04 g/m*3 8.4 C 0 km/h
33 08-05-2015 02:40:00 8.3 C 7 g/m*3 8.3 C 0 km/h
34 08-05-2015 02:45:00 8.3 C 7 g/m*3 8.3 C 0 km/h
35 08-05-2015 02:50:00 8.3 C 7 g/m*3 8.3 C 0 km/h
36 08-05-2015 02:55:00 8.3 C 7.08 g/m*3 8.3 C 0 km/h
37 08-05-2015 03:00:00 8.3 C 7.16 g/m*3 8.3 C 0 km/h
38 08-05-2015 03:05:00 8.3 C 7.16 g/m*3 8.3 C 0 km/h
39 08-05-2015 03:10:00 8.3 C 7.16 g/m*3 8.3 C 0 km/h
40 08-05-2015 03:15:00 8.4 C 7.21 g/m*3 8.4 C 0 km/h
41 08-05-2015 03:20:00 8.4 C 7.21 g/m*3 8.4 C 0 km/h
42 08-05-2015 03:25:00 8.4 C 7.21 g/m*3 8.4 C 0 km/h
43 08-05-2015 03:30:00 8.4 C 7.21 g/m*3 8.4 C 0 km/h
44 08-05-2015 03:35:00 8.4 C 7.21 g/m*3 8.4 C 0 km/h
45 08-05-2015 03:40:00 8.4 C 7.21 g/m*3 8.4 C 0 km/h
46 08-05-2015 03:45:00 8.4 C 7.21 g/m*3 8.4 C 0 km/h
47 08-05-2015 03:50:00 8.3 C 7.16 g/m*3 8.3 C 0 km/h
48 08-05-2015 03:55:00 8.3 C 7.16 g/m*3 8.3 C 0 km/h
49 08-05-2015 04:00:00 8.3 C 7.25 g/m*3 8.3 C 0 km/h
50 08-05-2015 04:05:00 8.3 C 7.16 g/m*3 8.3 C 0 km/h
Sensor: Nr:Datum:Temp:Abs-Feuchte:Windchill:Wind:
Aussen-T/F 51 08-05-2015 04:10:00 8.3 C 7.25 g/m*3 8.3 C 0 km/h
52 08-05-2015 04:15:00 8.2 C 7.29 g/m*3 8.2 C 0 km/h
53 08-05-2015 04:20:00 8.2 C 7.2 g/m*3 8.2 C 0 km/h
54 08-05-2015 04:25:00 8.2 C 7.29 g/m*3 8.2 C 0 km/h
55 08-05-2015 04:30:00 8.1 C 7.16 g/m*3 8.1 C 0 km/h
56 08-05-2015 04:35:00 8.1 C 7.16 g/m*3 8.1 C 0 km/h
57 08-05-2015 04:40:00 8.1 C 7.24 g/m*3 8.1 C 0 km/h
58 08-05-2015 04:45:00 8.2 C 7.29 g/m*3 8.2 C 0 km/h
59 08-05-2015 04:50:00 8.2 C 7.29 g/m*3 8.2 C 0 km/h
60 08-05-2015 04:55:00 8.1 C 7.24 g/m*3 8.1 C 0 km/h
61 08-05-2015 05:00:00 8.1 C 7.24 g/m*3 8.1 C 0 km/h
62 08-05-2015 05:05:00 8.1 C 7.24 g/m*3 8.1 C 0 km/h
63 08-05-2015 05:10:00 8.1 C 7.24 g/m*3 8.1 C 0 km/h
64 08-05-2015 05:15:00 8.1 C 7.24 g/m*3 8.1 C 0 km/h
65 08-05-2015 05:20:00 8.1 C 7.32 g/m*3 8.1 C 0 km/h
66 08-05-2015 05:25:00 8.1 C 7.32 g/m*3 8.1 C 0 km/h
67 08-05-2015 05:30:00 8.1 C 7.24 g/m*3 8.1 C 0 km/h
68 08-05-2015 05:35:00 8.1 C 7.24 g/m*3 8.1 C 0 km/h
69 08-05-2015 05:40:00 8 C 7.19 g/m*3 8 C 0 km/h
70 08-05-2015 05:45:00 7.9 C 7.15 g/m*3 7.9 C 0 km/h
71 08-05-2015 05:50:00 7.9 C 7.15 g/m*3 7.9 C 0 km/h
72 08-05-2015 05:55:00 7.8 C 7.1 g/m*3 7.8 C 0 km/h
73 08-05-2015 06:00:00 7.8 C 7.18 g/m*3 7.8 C 0 km/h
74 08-05-2015 06:05:00 7.7 C 7.14 g/m*3 7.7 C 0 km/h
75 08-05-2015 06:10:00 7.7 C 7.14 g/m*3 7.7 C 0 km/h
Sensor: Nr:Datum:Temp:Abs-Feuchte:Windchill:Wind:
Aussen-T/F 76 08-05-2015 06:15:00 7.7 C 7.14 g/m*3 7.7 C 0 km/h
77 08-05-2015 06:20:00 7.8 C 7.18 g/m*3 7.8 C 0 km/h
78 08-05-2015 06:25:00 7.8 C 7.18 g/m*3 7.8 C 0 km/h
79 08-05-2015 06:30:00 7.9 C 7.23 g/m*3 7.9 C 0 km/h
80 08-05-2015 06:35:00 7.9 C 7.23 g/m*3 7.9 C 0 km/h
81 08-05-2015 06:40:00 8 C 7.36 g/m*3 8 C 0 km/h
82 08-05-2015 06:45:00 8.1 C 7.41 g/m*3 8.1 C 0 km/h
83 08-05-2015 06:50:00 8.2 C 7.45 g/m*3 8.2 C 0 km/h
84 08-05-2015 06:55:00 8.2 C 7.45 g/m*3 8.2 C 0 km/h
85 08-05-2015 07:00:00 8.3 C 7.5 g/m*3 8.3 C 0 km/h
86 08-05-2015 07:05:00 8.3 C 7.5 g/m*3 8.3 C 0 km/h
87 08-05-2015 07:10:00 8.4 C 7.55 g/m*3 8.4 C 0 km/h
88 08-05-2015 07:15:00 8.4 C 7.47 g/m*3 8.4 C 0 km/h
89 08-05-2015 07:20:00 8.4 C 7.47 g/m*3 8.4 C 0 km/h
90 08-05-2015 07:25:00 8.3 C 7.42 g/m*3 8.3 C 0 km/h
91 08-05-2015 07:30:00 8.3 C 7.5 g/m*3 8.3 C 0 km/h
92 08-05-2015 07:35:00 8.3 C 7.5 g/m*3 8.3 C 0 km/h
93 08-05-2015 07:40:00 8.4 C 7.55 g/m*3 8.4 C 0 km/h
94 08-05-2015 07:45:00 8.4 C 7.55 g/m*3 8.4 C 0 km/h
95 08-05-2015 07:50:00 8.6 C 7.65 g/m*3 8.6 C 0 km/h
96 08-05-2015 07:55:00 8.7 C 7.7 g/m*3 8.7 C 0 km/h
97 08-05-2015 08:00:00 8.9 C 7.71 g/m*3 8.9 C 0 km/h
98 08-05-2015 08:05:00 9.2 C 7.77 g/m*3 9.2 C 0 km/h
99 08-05-2015 08:10:00 9.4 C 7.78 g/m*3 9.4 C 0 km/h
100 08-05-2015 08:15:00 9.7 C 7.84 g/m*3 9.7 C 0 km/h
Sensor: Nr:Datum:Temp:Abs-Feuchte:Windchill:Wind:
Aussen-T/F 101 08-05-2015 08:20:00 9.9 C 7.94 g/m*3 9.9 C 0 km/h
102 08-05-2015 08:25:00 10.1 C 7.94 g/m*3 10.1 C 0 km/h
103 08-05-2015 08:30:00 10.3 C 8.14 g/m*3 10.3 C 0 km/h
104 08-05-2015 08:35:00 10.4 C 8.1 g/m*3 10.4 C 0 km/h
105 08-05-2015 08:40:00 10.6 C 8.1 g/m*3 10.6 C 0 km/h
106 08-05-2015 08:45:00 10.8 C 8.2 g/m*3 10.8 C 0 km/h
107 08-05-2015 08:50:00 10.9 C 8.26 g/m*3 10.9 C 0 km/h
108 08-05-2015 08:55:00 11.2 C 8.41 g/m*3 11.2 C 0 km/h
109 08-05-2015 09:00:00 11.3 C 8.26 g/m*3 11.3 C 0 km/h
110 08-05-2015 09:05:00 11.4 C 8.21 g/m*3 11.4 C 0 km/h
111 08-05-2015 09:10:00 11.6 C 8.32 g/m*3 11.6 C 0 km/h
112 08-05-2015 09:15:00 11.7 C 8.37 g/m*3 11.7 C 0 km/h
113 08-05-2015 09:20:00 11.8 C 8.31 g/m*3 11.8 C 0 km/h
114 08-05-2015 09:25:00 12 C 8.31 g/m*3 12 C 0 km/h
115 08-05-2015 09:30:00 12.2 C 8.31 g/m*3 12.2 C 0 km/h
116 08-05-2015 09:35:00 12.4 C 8.3 g/m*3 12.4 C 0 km/h
117 08-05-2015 09:40:00 12.7 C 8.24 g/m*3 12.7 C 0 km/h
118 08-05-2015 09:45:00 12.9 C 8.23 g/m*3 12.9 C 0 km/h
119 08-05-2015 09:50:00 13.2 C 8.5 g/m*3 13.2 C 0 km/h
120 08-05-2015 09:55:00 13.5 C 8.3 g/m*3 13.5 C 4.8 km/h
121 08-05-2015 10:00:00 13.7 C 8.29 g/m*3 13.7 C 4.8 km/h
122 08-05-2015 10:05:00 13.8 C 8.46 g/m*3 13.8 C 0 km/h
123 08-05-2015 10:10:00 14 C 9.05 g/m*3 14 C 0 km/h
124 08-05-2015 10:15:00 14.1 C 8.37 g/m*3 14.1 C 3.2 km/h
125 08-05-2015 10:20:00 14.4 C 8.53 g/m*3 14.4 C 3.2 km/h
Sensor: Nr:Datum:Temp:Abs-Feuchte:Windchill:Wind:
Aussen-T/F 126 08-05-2015 10:25:00 14.7 C 9.07 g/m*3 14.7 C 1.6 km/h
127 08-05-2015 10:30:00 14.9 C 8.54 g/m*3 14.9 C 3.2 km/h
128 08-05-2015 10:35:00 15.2 C 8.57 g/m*3 15.2 C 3.2 km/h
129 08-05-2015 10:40:00 15.6 C 8.91 g/m*3 15.6 C 6.4 km/h
130 08-05-2015 10:45:00 15.8 C 8.48 g/m*3 15.8 C 6.4 km/h
131 08-05-2015 10:50:00 16.2 C 9.1 g/m*3 16.2 C 3.2 km/h
132 08-05-2015 10:55:00 16.6 C 8.9 g/m*3 16.6 C 6.4 km/h
133 08-05-2015 11:00:00 17 C 8.83 g/m*3 17 C 6.4 km/h
134 08-05-2015 11:05:00 17.3 C 8.99 g/m*3 17.3 C 1.6 km/h
135 08-05-2015 11:10:00 17.6 C 9.15 g/m*3 17.6 C 4.8 km/h
136 08-05-2015 11:15:00 17.9 C 9.01 g/m*3 17.9 C 8.1 km/h
137 08-05-2015 11:20:00 18.3 C 8.91 g/m*3 18.3 C 9.7 km/h
138 08-05-2015 11:25:00 18.6 C 8.75 g/m*3 18.6 C 9.7 km/h
139 08-05-2015 11:30:00 18.8 C 9.02 g/m*3 18.8 C 3.2 km/h
140 08-05-2015 11:35:00 19 C 8.8 g/m*3 19 C 4.8 km/h
141 08-05-2015 11:40:00 19.3 C 8.96 g/m*3 19.3 C 6.4 km/h
142 08-05-2015 11:45:00 19.6 C 8.61 g/m*3 19.6 C 6.4 km/h
143 08-05-2015 11:50:00 19.5 C 8.39 g/m*3 19.5 C 4.8 km/h
144 08-05-2015 11:55:00 19.4 C 8.18 g/m*3 19.4 C 9.7 km/h
145 08-05-2015 12:00:00 19.4 C 8.18 g/m*3 19.4 C 8.1 km/h
146 08-05-2015 12:05:00 19.4 C 8.51 g/m*3 19.4 C 8.1 km/h
147 08-05-2015 12:10:00 19.5 C 8.39 g/m*3 19.5 C 8.1 km/h
148 08-05-2015 12:15:00 19.5 C 7.89 g/m*3 19.5 C 11.3 km/h
149 08-05-2015 12:20:00 19.6 C 8.1 g/m*3 19.6 C 12.9 km/h
150 08-05-2015 12:25:00 19.7 C 7.98 g/m*3 19.7 C 11.3 km/h
Sensor: Nr:Datum:Temp:Abs-Feuchte:Windchill:Wind:
Aussen-T/F 151 08-05-2015 12:30:00 19.9 C 7.56 g/m*3 19.9 C 8.1 km/h
152 08-05-2015 12:35:00 20.1 C 7.82 g/m*3 20.1 C 6.4 km/h
153 08-05-2015 12:40:00 20.1 C 8.17 g/m*3 20.1 C 9.7 km/h
154 08-05-2015 12:45:00 20.3 C 7.56 g/m*3 20.3 C 9.7 km/h
155 08-05-2015 12:50:00 20.5 C 7.83 g/m*3 20.5 C 9.7 km/h
156 08-05-2015 12:55:00 20.7 C 7.92 g/m*3 20.7 C 14.5 km/h
157 08-05-2015 13:00:00 20.7 C 7.92 g/m*3 20.7 C 8.1 km/h
158 08-05-2015 13:05:00 20.9 C 8.01 g/m*3 20.9 C 6.4 km/h
159 08-05-2015 13:10:00 21.1 C 8.29 g/m*3 21.1 C 4.8 km/h
160 08-05-2015 13:15:00 21.3 C 7.83 g/m*3 21.3 C 8.1 km/h
161 08-05-2015 13:20:00 21.4 C 8.06 g/m*3 21.4 C 9.7 km/h
162 08-05-2015 13:25:00 21.4 C 8.06 g/m*3 21.4 C 8.1 km/h
163 08-05-2015 13:30:00 21.3 C 8.39 g/m*3 21.3 C 11.3 km/h
164 08-05-2015 13:35:00 21.3 C 8.2 g/m*3 21.3 C 8.1 km/h
165 08-05-2015 13:40:00 21.3 C 7.83 g/m*3 21.3 C 8.1 km/h
166 08-05-2015 13:45:00 21.6 C 8.35 g/m*3 21.6 C 4.8 km/h
167 08-05-2015 13:50:00 21.9 C 8.68 g/m*3 21.9 C 8.1 km/h
168 08-05-2015 13:55:00 22 C 8.15 g/m*3 22 C 9.7 km/h
169 08-05-2015 14:00:00 22.1 C 7.81 g/m*3 22.1 C 11.3 km/h
170 08-05-2015 14:05:00 22 C 8.15 g/m*3 22 C 11.3 km/h
171 08-05-2015 14:10:00 22.1 C 8.39 g/m*3 22.1 C 6.4 km/h
172 08-05-2015 14:15:00 22.3 C 8.29 g/m*3 22.3 C 4.8 km/h
173 08-05-2015 14:20:00 22.3 C 7.9 g/m*3 22.3 C 6.4 km/h
174 08-05-2015 14:25:00 22.2 C 8.44 g/m*3 22.2 C 8.1 km/h
175 08-05-2015 14:30:00 21.9 C 7.72 g/m*3 21.9 C 6.4 km/h
Sensor: Nr:Datum:Temp:Abs-Feuchte:Windchill:Wind:
Aussen-T/F 176 08-05-2015 14:35:00 21.7 C 8.39 g/m*3 21.7 C 4.8 km/h
177 08-05-2015 14:40:00 21.6 C 8.35 g/m*3 21.6 C 6.4 km/h
178 08-05-2015 14:45:00 21.8 C 8.44 g/m*3 21.8 C 6.4 km/h
179 08-05-2015 14:50:00 22.3 C 8.69 g/m*3 22.3 C 8.1 km/h
180 08-05-2015 14:55:00 22.3 C 8.69 g/m*3 22.3 C 8.1 km/h
181 08-05-2015 15:00:00 22.6 C 7.83 g/m*3 22.6 C 6.4 km/h
182 08-05-2015 15:05:00 22.7 C 8.69 g/m*3 22.7 C 8.1 km/h
183 08-05-2015 15:10:00 22.7 C 7.68 g/m*3 22.7 C 8.1 km/h
184 08-05-2015 15:15:00 22.8 C 8.33 g/m*3 22.8 C 6.4 km/h
185 08-05-2015 15:20:00 22.9 C 8.17 g/m*3 22.9 C 8.1 km/h
186 08-05-2015 15:25:00 23.1 C 8.68 g/m*3 23.1 C 9.7 km/h
187 08-05-2015 15:30:00 23.2 C 8.11 g/m*3 23.2 C 6.4 km/h
188 08-05-2015 15:35:00 23.2 C 8.11 g/m*3 23.2 C 8.1 km/h
189 08-05-2015 15:40:00 23.1 C 8.68 g/m*3 23.1 C 8.1 km/h
190 08-05-2015 15:45:00 23.3 C 8.15 g/m*3 23.3 C 8.1 km/h
191 08-05-2015 15:50:00 23.4 C 8.2 g/m*3 23.4 C 4.8 km/h
192 08-05-2015 15:55:00 23.4 C 8.2 g/m*3 23.4 C 4.8 km/h
193 08-05-2015 16:00:00 23.5 C 8.67 g/m*3 23.5 C 4.8 km/h
194 08-05-2015 16:05:00 23.4 C 8.83 g/m*3 23.4 C 4.8 km/h
195 08-05-2015 16:10:00 23.1 C 7.65 g/m*3 23.1 C 3.2 km/h
196 08-05-2015 16:15:00 22.9 C 7.97 g/m*3 22.9 C 6.4 km/h
197 08-05-2015 16:20:00 22.9 C 8.38 g/m*3 22.9 C 4.8 km/h
198 08-05-2015 16:25:00 22.8 C 7.92 g/m*3 22.8 C 3.2 km/h
199 08-05-2015 16:30:00 22.7 C 8.28 g/m*3 22.7 C 1.6 km/h
200 08-05-2015 16:35:00 22.4 C 7.94 g/m*3 22.4 C 0 km/h
Sensor: Nr:Datum:Temp:Abs-Feuchte:Windchill:Wind:
Aussen-T/F 201 08-05-2015 16:40:00 22.1 C 7.61 g/m*3 22.1 C 6.4 km/h
202 08-05-2015 16:45:00 22 C 8.54 g/m*3 22 C 3.2 km/h
203 08-05-2015 16:50:00 21.9 C 8.3 g/m*3 21.9 C 1.6 km/h
204 08-05-2015 16:55:00 21.8 C 8.25 g/m*3 21.8 C 1.6 km/h
205 08-05-2015 17:00:00 21.7 C 9.92 g/m*3 21.7 C 0 km/h
206 08-05-2015 17:05:00 21.5 C 9.99 g/m*3 21.5 C 3.2 km/h
207 08-05-2015 17:10:00 21.3 C 8.76 g/m*3 21.3 C 4.8 km/h
208 08-05-2015 17:15:00 21.2 C 8.52 g/m*3 21.2 C 3.2 km/h
209 08-05-2015 17:20:00 21.2 C 8.71 g/m*3 21.2 C 3.2 km/h
210 08-05-2015 17:25:00 21.2 C 8.71 g/m*3 21.2 C 3.2 km/h
211 08-05-2015 17:30:00 21.2 C 9.82 g/m*3 21.2 C 0 km/h
212 08-05-2015 17:35:00 21.1 C 10.69 g/m*3 21.1 C 1.6 km/h
213 08-05-2015 17:40:00 20.9 C 9.83 g/m*3 20.9 C 1.6 km/h
214 08-05-2015 17:45:00 20.7 C 10.26 g/m*3 20.7 C 1.6 km/h
215 08-05-2015 17:50:00 20.4 C 9.38 g/m*3 20.4 C 1.6 km/h
216 08-05-2015 17:55:00 20.3 C 8.97 g/m*3 20.3 C 0 km/h
217 08-05-2015 18:00:00 20.1 C 10.08 g/m*3 20.1 C 0 km/h
218 08-05-2015 18:05:00 19.7 C 8.66 g/m*3 19.7 C 1.6 km/h
219 08-05-2015 18:10:00 19.5 C 8.39 g/m*3 19.5 C 1.6 km/h
220 08-05-2015 18:15:00 19.5 C 8.89 g/m*3 19.5 C 1.6 km/h
221 08-05-2015 18:20:00 19.4 C 7.67 g/m*3 19.4 C 4.8 km/h
222 08-05-2015 18:25:00 19.3 C 9.62 g/m*3 19.3 C 1.6 km/h
223 08-05-2015 18:30:00 18.8 C 9.66 g/m*3 18.8 C 0 km/h
224 08-05-2015 18:35:00 18.4 C 8.97 g/m*3 18.4 C 1.6 km/h
225 08-05-2015 18:40:00 18.2 C 9.48 g/m*3 18.2 C 1.6 km/h
Sensor: Nr:Datum:Temp:Abs-Feuchte:Windchill:Wind:
Aussen-T/F 226 08-05-2015 18:45:00 18 C 8.91 g/m*3 18 C 3.2 km/h
227 08-05-2015 18:50:00 17.9 C 9.31 g/m*3 17.9 C 1.6 km/h
228 08-05-2015 18:55:00 17.8 C 9.11 g/m*3 17.8 C 1.6 km/h
229 08-05-2015 19:00:00 17.7 C 8.9 g/m*3 17.7 C 1.6 km/h
230 08-05-2015 19:05:00 17.6 C 9.45 g/m*3 17.6 C 0 km/h
231 08-05-2015 19:10:00 17.4 C 9.48 g/m*3 17.4 C 1.6 km/h
232 08-05-2015 19:15:00 17.2 C 9.52 g/m*3 17.2 C 1.6 km/h
233 08-05-2015 19:20:00 17.1 C 9.75 g/m*3 17.1 C 0 km/h
234 08-05-2015 19:25:00 16.9 C 9.64 g/m*3 16.9 C 0 km/h
235 08-05-2015 19:30:00 16.8 C 9.58 g/m*3 16.8 C 0 km/h
236 08-05-2015 19:35:00 16.6 C 9.61 g/m*3 16.6 C 1.6 km/h
237 08-05-2015 19:40:00 16.6 C 9.61 g/m*3 16.6 C 0 km/h
238 08-05-2015 19:45:00 16.4 C 9.63 g/m*3 16.4 C 0 km/h
239 08-05-2015 19:50:00 16.4 C 9.63 g/m*3 16.4 C 0 km/h
240 08-05-2015 19:55:00 16.3 C 9.71 g/m*3 16.3 C 0 km/h
241 08-05-2015 20:00:00 16 C 9.67 g/m*3 16 C 0 km/h
242 08-05-2015 20:05:00 15.8 C 9.69 g/m*3 15.8 C 1.6 km/h
243 08-05-2015 20:10:00 15.7 C 9.77 g/m*3 15.7 C 1.6 km/h
244 08-05-2015 20:15:00 15.5 C 9.78 g/m*3 15.5 C 1.6 km/h
245 08-05-2015 20:20:00 15.4 C 9.46 g/m*3 15.4 C 1.6 km/h
246 08-05-2015 20:25:00 15.3 C 8.88 g/m*3 15.3 C 3.2 km/h
247 08-05-2015 20:30:00 15.4 C 8.93 g/m*3 15.4 C 1.6 km/h
248 08-05-2015 20:35:00 15.6 C 9.58 g/m*3 15.6 C 1.6 km/h
249 08-05-2015 20:40:00 15.5 C 9.52 g/m*3 15.5 C 0 km/h
250 08-05-2015 20:45:00 15.4 C 9.46 g/m*3 15.4 C 0 km/h
Sensor: Nr:Datum:Temp:Abs-Feuchte:Windchill:Wind:
Aussen-T/F 251 08-05-2015 20:50:00 15.3 C 9.4 g/m*3 15.3 C 0 km/h
252 08-05-2015 20:55:00 15.2 C 9.35 g/m*3 15.2 C 1.6 km/h
253 08-05-2015 21:00:00 15.2 C 8.96 g/m*3 15.2 C 1.6 km/h
254 08-05-2015 21:05:00 15.3 C 9.14 g/m*3 15.3 C 1.6 km/h
255 08-05-2015 21:10:00 15.3 C 9.01 g/m*3 15.3 C 0 km/h
256 08-05-2015 21:15:00 15.3 C 9.14 g/m*3 15.3 C 0 km/h
257 08-05-2015 21:20:00 15.3 C 9.53 g/m*3 15.3 C 0 km/h
258 08-05-2015 21:25:00 15.1 C 9.42 g/m*3 15.1 C 0 km/h
259 08-05-2015 21:30:00 15.1 C 9.55 g/m*3 15.1 C 0 km/h
260 08-05-2015 21:35:00 14.9 C 9.3 g/m*3 14.9 C 1.6 km/h
261 08-05-2015 21:40:00 14.9 C 9.3 g/m*3 14.9 C 1.6 km/h
262 08-05-2015 21:45:00 15 C 9.36 g/m*3 15 C 1.6 km/h
263 08-05-2015 21:50:00 15 C 9.49 g/m*3 15 C 0 km/h
264 08-05-2015 21:55:00 14.9 C 9.43 g/m*3 14.9 C 0 km/h
265 08-05-2015 22:00:00 14.8 C 9.25 g/m*3 14.8 C 0 km/h
266 08-05-2015 22:05:00 14.8 C 9.63 g/m*3 14.8 C 0 km/h
267 08-05-2015 22:10:00 14.7 C 9.57 g/m*3 14.7 C 0 km/h
268 08-05-2015 22:15:00 14.7 C 9.57 g/m*3 14.7 C 0 km/h
269 08-05-2015 22:20:00 14.6 C 9.39 g/m*3 14.6 C 1.6 km/h
270 08-05-2015 22:25:00 14.6 C 9.64 g/m*3 14.6 C 0 km/h
271 08-05-2015 22:30:00 14.6 C 9.76 g/m*3 14.6 C 0 km/h
272 08-05-2015 22:35:00 14.4 C 9.64 g/m*3 14.4 C 0 km/h
273 08-05-2015 22:40:00 14.4 C 9.64 g/m*3 14.4 C 0 km/h
274 08-05-2015 22:45:00 14.3 C 9.58 g/m*3 14.3 C 0 km/h
275 08-05-2015 22:50:00 14.2 C 9.52 g/m*3 14.2 C 0 km/h
Sensor: Nr:Datum:Temp:Abs-Feuchte:Windchill:Wind:
Aussen-T/F 276 08-05-2015 22:55:00 14.1 C 9.47 g/m*3 14.1 C 0 km/h
277 08-05-2015 23:00:00 13.9 C 9.47 g/m*3 13.9 C 0 km/h
278 08-05-2015 23:05:00 13.9 C 9.47 g/m*3 13.9 C 0 km/h
279 08-05-2015 23:10:00 13.8 C 9.41 g/m*3 13.8 C 0 km/h
280 08-05-2015 23:15:00 13.8 C 9.53 g/m*3 13.8 C 0 km/h
281 08-05-2015 23:20:00 13.7 C 9.47 g/m*3 13.7 C 0 km/h
282 08-05-2015 23:25:00 13.7 C 9.47 g/m*3 13.7 C 0 km/h
283 08-05-2015 23:30:00 13.6 C 9.42 g/m*3 13.6 C 0 km/h
284 08-05-2015 23:35:00 13.5 C 9.36 g/m*3 13.5 C 0 km/h
285 08-05-2015 23:40:00 13.4 C 9.42 g/m*3 13.4 C 0 km/h
286 08-05-2015 23:45:00 13.3 C 9.24 g/m*3 13.3 C 0 km/h
287 08-05-2015 23:50:00 13.3 C 9.24 g/m*3 13.3 C 0 km/h
288 08-05-2015 23:55:00 13.2 C 9.19 g/m*3 13.2 C 0 km/h
289 09-05-2015 00:00:00 13.1 C 9.13 g/m*3 13.1 C 0 km/h
290 09-05-2015 00:05:00 13 C 9.07 g/m*3 13 C 0 km/h
291 09-05-2015 00:10:00 12.8 C 9.07 g/m*3 12.8 C 0 km/h
292 09-05-2015 00:15:00 12.7 C 9.02 g/m*3 12.7 C 0 km/h
293 09-05-2015 00:20:00 12.5 C 8.91 g/m*3 12.5 C 0 km/h
294 09-05-2015 00:25:00 12.4 C 8.96 g/m*3 12.4 C 0 km/h
295 09-05-2015 00:30:00 12.3 C 8.9 g/m*3 12.3 C 0 km/h
296 09-05-2015 00:35:00 12.1 C 8.79 g/m*3 12.1 C 0 km/h
297 09-05-2015 00:40:00 12.1 C 8.9 g/m*3 12.1 C 0 km/h
298 09-05-2015 00:45:00 11.9 C 8.79 g/m*3 11.9 C 0 km/h
299 09-05-2015 00:50:00 11.9 C 8.68 g/m*3 11.9 C 0 km/h
300 09-05-2015 00:55:00 11.8 C 8.63 g/m*3 11.8 C 0 km/h
Sensor: Nr:Datum:Temp:Abs-Feuchte:Windchill:Wind:
Aussen-T/F 301 09-05-2015 01:00:00 11.7 C 8.68 g/m*3 11.7 C 0 km/h
302 09-05-2015 01:05:00 11.6 C 8.63 g/m*3 11.6 C 0 km/h
303 09-05-2015 01:10:00 11.4 C 8.52 g/m*3 11.4 C 0 km/h
304 09-05-2015 01:15:00 11.3 C 8.47 g/m*3 11.3 C 0 km/h
305 09-05-2015 01:20:00 11.3 C 8.57 g/m*3 11.3 C 0 km/h
306 09-05-2015 01:25:00 11.2 C 8.51 g/m*3 11.2 C 0 km/h
307 09-05-2015 01:30:00 11.1 C 8.46 g/m*3 11.1 C 0 km/h
308 09-05-2015 01:35:00 11.1 C 8.46 g/m*3 11.1 C 0 km/h
309 09-05-2015 01:40:00 11.1 C 8.46 g/m*3 11.1 C 0 km/h
310 09-05-2015 01:45:00 11.1 C 8.46 g/m*3 11.1 C 0 km/h
311 09-05-2015 01:50:00 11.1 C 8.46 g/m*3 11.1 C 0 km/h
312 09-05-2015 01:55:00 11.1 C 8.46 g/m*3 11.1 C 0 km/h
313 09-05-2015 02:00:00 11.1 C 8.56 g/m*3 11.1 C 0 km/h
314 09-05-2015 02:05:00 11.1 C 8.56 g/m*3 11.1 C 0 km/h
315 09-05-2015 02:10:00 11.1 C 8.56 g/m*3 11.1 C 0 km/h
316 09-05-2015 02:15:00 11.2 C 8.62 g/m*3 11.2 C 0 km/h
317 09-05-2015 02:20:00 11.1 C 8.56 g/m*3 11.1 C 0 km/h
318 09-05-2015 02:25:00 11 C 8.51 g/m*3 11 C 0 km/h
319 09-05-2015 02:30:00 10.9 C 8.55 g/m*3 10.9 C 0 km/h
320 09-05-2015 02:35:00 10.9 C 8.55 g/m*3 10.9 C 0 km/h
321 09-05-2015 02:40:00 10.8 C 8.5 g/m*3 10.8 C 0 km/h
322 09-05-2015 02:45:00 10.8 C 8.5 g/m*3 10.8 C 0 km/h
323 09-05-2015 02:50:00 10.8 C 8.5 g/m*3 10.8 C 0 km/h
324 09-05-2015 02:55:00 10.8 C 8.6 g/m*3 10.8 C 0 km/h
325 09-05-2015 03:00:00 10.8 C 8.6 g/m*3 10.8 C 0 km/h
Sensor: Nr:Datum:Temp:Abs-Feuchte:Windchill:Wind:
Aussen-T/F 326 09-05-2015 03:05:00 10.8 C 8.6 g/m*3 10.8 C 0 km/h
327 09-05-2015 03:10:00 10.8 C 8.7 g/m*3 10.8 C 0 km/h
328 09-05-2015 03:15:00 10.8 C 8.7 g/m*3 10.8 C 0 km/h
329 09-05-2015 03:20:00 10.8 C 8.7 g/m*3 10.8 C 0 km/h
330 09-05-2015 03:25:00 10.8 C 8.7 g/m*3 10.8 C 0 km/h
331 09-05-2015 03:30:00 10.9 C 8.75 g/m*3 10.9 C 0 km/h
332 09-05-2015 03:35:00 10.9 C 8.75 g/m*3 10.9 C 0 km/h
333 09-05-2015 03:40:00 10.9 C 8.65 g/m*3 10.9 C 0 km/h
334 09-05-2015 03:45:00 10.8 C 8.6 g/m*3 10.8 C 0 km/h
335 09-05-2015 03:50:00 10.8 C 8.6 g/m*3 10.8 C 0 km/h
336 09-05-2015 03:55:00 10.8 C 8.6 g/m*3 10.8 C 0 km/h
337 09-05-2015 04:00:00 10.8 C 8.7 g/m*3 10.8 C 0 km/h
338 09-05-2015 04:05:00 10.8 C 8.7 g/m*3 10.8 C 3.2 km/h
339 09-05-2015 04:10:00 10.9 C 8.75 g/m*3 10.9 C 3.2 km/h
340 09-05-2015 04:15:00 10.8 C 8.6 g/m*3 10.8 C 1.6 km/h
341 09-05-2015 04:20:00 10.8 C 8.7 g/m*3 10.8 C 0 km/h
342 09-05-2015 04:25:00 10.9 C 8.65 g/m*3 10.9 C 0 km/h
343 09-05-2015 04:30:00 10.9 C 8.65 g/m*3 10.9 C 0 km/h
344 09-05-2015 04:35:00 10.9 C 8.65 g/m*3 10.9 C 0 km/h
345 09-05-2015 04:40:00 10.8 C 8.6 g/m*3 10.8 C 0 km/h
346 09-05-2015 04:45:00 10.7 C 8.55 g/m*3 10.7 C 0 km/h
347 09-05-2015 04:50:00 10.6 C 8.59 g/m*3 10.6 C 0 km/h
348 09-05-2015 04:55:00 10.6 C 8.59 g/m*3 10.6 C 0 km/h
349 09-05-2015 05:00:00 10.6 C 8.59 g/m*3 10.6 C 0 km/h
350 09-05-2015 05:05:00 10.6 C 8.59 g/m*3 10.6 C 0 km/h
Sensor: Nr:Datum:Temp:Abs-Feuchte:Windchill:Wind:
Aussen-T/F 351 09-05-2015 05:10:00 10.6 C 8.69 g/m*3 10.6 C 0 km/h
352 09-05-2015 05:15:00 10.6 C 8.59 g/m*3 10.6 C 0 km/h
353 09-05-2015 05:20:00 10.6 C 8.59 g/m*3 10.6 C 0 km/h
354 09-05-2015 05:25:00 10.6 C 8.69 g/m*3 10.6 C 0 km/h
355 09-05-2015 05:30:00 10.5 C 8.63 g/m*3 10.5 C 0 km/h
356 09-05-2015 05:35:00 10.6 C 8.78 g/m*3 10.6 C 0 km/h
357 09-05-2015 05:40:00 10.6 C 8.69 g/m*3 10.6 C 0 km/h
358 09-05-2015 05:45:00 10.6 C 8.78 g/m*3 10.6 C 0 km/h
359 09-05-2015 05:50:00 10.6 C 8.78 g/m*3 10.6 C 0 km/h
360 09-05-2015 05:55:00 10.6 C 8.78 g/m*3 10.6 C 0 km/h
361 09-05-2015 06:00:00 10.6 C 8.78 g/m*3 10.6 C 0 km/h
362 09-05-2015 06:05:00 10.7 C 8.84 g/m*3 10.7 C 0 km/h
363 09-05-2015 06:10:00 10.7 C 8.94 g/m*3 10.7 C 0 km/h
364 09-05-2015 06:15:00 10.7 C 8.94 g/m*3 10.7 C 0 km/h
365 09-05-2015 06:20:00 10.7 C 8.94 g/m*3 10.7 C 0 km/h
366 09-05-2015 06:25:00 10.7 C 8.94 g/m*3 10.7 C 0 km/h
367 09-05-2015 06:30:00 10.7 C 8.94 g/m*3 10.7 C 0 km/h
368 09-05-2015 06:35:00 10.7 C 8.94 g/m*3 10.7 C 0 km/h
369 09-05-2015 06:40:00 10.7 C 8.94 g/m*3 10.7 C 0 km/h
370 09-05-2015 06:45:00 10.8 C 8.99 g/m*3 10.8 C 0 km/h
371 09-05-2015 06:50:00 10.8 C 8.99 g/m*3 10.8 C 0 km/h
372 09-05-2015 06:55:00 10.8 C 8.99 g/m*3 10.8 C 0 km/h
373 09-05-2015 07:00:00 10.9 C 9.05 g/m*3 10.9 C 0 km/h
374 09-05-2015 07:05:00 11 C 9.11 g/m*3 11 C 0 km/h
375 09-05-2015 07:10:00 11.2 C 9.33 g/m*3 11.2 C 0 km/h
Sensor: Nr:Datum:Temp:Abs-Feuchte:Windchill:Wind:
Aussen-T/F 376 09-05-2015 07:15:00 11.3 C 9.28 g/m*3 11.3 C 0 km/h
377 09-05-2015 07:20:00 11.6 C 9.46 g/m*3 11.6 C 3.2 km/h
378 09-05-2015 07:25:00 11.8 C 9.58 g/m*3 11.8 C 4.8 km/h
379 09-05-2015 07:30:00 12.2 C 9.71 g/m*3 12.2 C 9.7 km/h
380 09-05-2015 07:35:00 12.5 C 9.89 g/m*3 12.5 C 1.6 km/h
381 09-05-2015 07:40:00 12.8 C 9.97 g/m*3 12.8 C 8.1 km/h
382 09-05-2015 07:45:00 13.1 C 10.04 g/m*3 13.1 C 4.8 km/h
383 09-05-2015 07:50:00 13.4 C 10.11 g/m*3 13.4 C 6.4 km/h
384 09-05-2015 07:55:00 13.6 C 10.24 g/m*3 13.6 C 3.2 km/h
385 09-05-2015 08:00:00 13.8 C 10.25 g/m*3 13.8 C 9.7 km/h
386 09-05-2015 08:05:00 14 C 10.37 g/m*3 14 C 4.8 km/h
387 09-05-2015 08:10:00 14.2 C 10.38 g/m*3 14.2 C 6.4 km/h
388 09-05-2015 08:15:00 14.3 C 10.44 g/m*3 14.3 C 8.1 km/h
389 09-05-2015 08:20:00 14.5 C 10.57 g/m*3 14.5 C 8.1 km/h
390 09-05-2015 08:25:00 14.8 C 10.64 g/m*3 14.8 C 8.1 km/h
391 09-05-2015 08:30:00 15.2 C 10.77 g/m*3 15.2 C 12.9 km/h
392 09-05-2015 08:35:00 15.6 C 10.91 g/m*3 15.6 C 11.3 km/h
393 09-05-2015 08:40:00 15.7 C 10.7 g/m*3 15.7 C 11.3 km/h
394 09-05-2015 08:45:00 15.9 C 10.83 g/m*3 15.9 C 14.5 km/h
395 09-05-2015 08:50:00 15.9 C 10.7 g/m*3 15.9 C 9.7 km/h
396 09-05-2015 08:55:00 15.8 C 10.77 g/m*3 15.8 C 11.3 km/h
397 09-05-2015 09:00:00 15.8 C 10.77 g/m*3 15.8 C 12.9 km/h
398 09-05-2015 09:05:00 15.7 C 10.7 g/m*3 15.7 C 8.1 km/h
399 09-05-2015 09:10:00 15.8 C 10.77 g/m*3 15.8 C 6.4 km/h
400 09-05-2015 09:15:00 15.8 C 10.77 g/m*3 15.8 C 8.1 km/h
Sensor: Nr:Datum:Temp:Abs-Feuchte:Windchill:Wind:
Aussen-T/F 401 09-05-2015 09:20:00 15.8 C 10.77 g/m*3 15.8 C 8.1 km/h
402 09-05-2015 09:25:00 15.9 C 10.83 g/m*3 15.9 C 3.2 km/h
403 09-05-2015 09:30:00 16.1 C 10.97 g/m*3 16.1 C 12.9 km/h
404 09-05-2015 09:35:00 16.2 C 10.89 g/m*3 16.2 C 9.7 km/h
405 09-05-2015 09:40:00 16.3 C 10.96 g/m*3 16.3 C 11.3 km/h
406 09-05-2015 09:45:00 16.4 C 11.03 g/m*3 16.4 C 12.9 km/h
407 09-05-2015 09:50:00 16.6 C 11.02 g/m*3 16.6 C 11.3 km/h
408 09-05-2015 09:55:00 16.6 C 11.02 g/m*3 16.6 C 12.9 km/h
409 09-05-2015 10:00:00 16.6 C 11.02 g/m*3 16.6 C 8.1 km/h
410 09-05-2015 10:05:00 16.6 C 11.02 g/m*3 16.6 C 8.1 km/h
411 09-05-2015 10:10:00 16.7 C 11.08 g/m*3 16.7 C 11.3 km/h
412 09-05-2015 10:15:00 16.7 C 11.08 g/m*3 16.7 C 9.7 km/h
413 09-05-2015 10:20:00 16.7 C 10.94 g/m*3 16.7 C 14.5 km/h
414 09-05-2015 10:25:00 16.7 C 10.94 g/m*3 16.7 C 16.1 km/h
415 09-05-2015 10:30:00 16.8 C 11.01 g/m*3 16.8 C 16.1 km/h
416 09-05-2015 10:35:00 16.9 C 11.08 g/m*3 16.9 C 12.9 km/h
417 09-05-2015 10:40:00 17.1 C 11.06 g/m*3 17.1 C 17.7 km/h
418 09-05-2015 10:45:00 17.3 C 11.05 g/m*3 17.3 C 16.1 km/h
419 09-05-2015 10:50:00 17.4 C 11.26 g/m*3 17.4 C 9.7 km/h
420 09-05-2015 10:55:00 17.7 C 11.32 g/m*3 17.7 C 12.9 km/h
421 09-05-2015 11:00:00 17.9 C 11.3 g/m*3 17.9 C 16.1 km/h
422 09-05-2015 11:05:00 18.1 C 11.12 g/m*3 18.1 C 14.5 km/h
423 09-05-2015 11:10:00 18.3 C 11.26 g/m*3 18.3 C 16.1 km/h
424 09-05-2015 11:15:00 18.6 C 11.3 g/m*3 18.6 C 16.1 km/h
425 09-05-2015 11:20:00 18.7 C 11.37 g/m*3 18.7 C 6.4 km/h
Sensor: Nr:Datum:Temp:Abs-Feuchte:Windchill:Wind:
Aussen-T/F 426 09-05-2015 11:25:00 18.8 C 11.11 g/m*3 18.8 C 9.7 km/h
427 09-05-2015 11:30:00 18.8 C 10.95 g/m*3 18.8 C 16.1 km/h
428 09-05-2015 11:35:00 18.4 C 10.85 g/m*3 18.4 C 17.7 km/h
429 09-05-2015 11:40:00 18.1 C 10.66 g/m*3 18.1 C 14.5 km/h
430 09-05-2015 11:45:00 17.8 C 10.62 g/m*3 17.8 C 17.7 km/h
431 09-05-2015 11:50:00 17.7 C 10.41 g/m*3 17.7 C 11.3 km/h
432 09-05-2015 11:55:00 17.7 C 10.56 g/m*3 17.7 C 9.7 km/h
433 09-05-2015 12:00:00 17.9 C 10.69 g/m*3 17.9 C 8.1 km/h
434 09-05-2015 12:05:00 18.3 C 10.63 g/m*3 18.3 C 11.3 km/h
435 09-05-2015 12:10:00 18.6 C 10.66 g/m*3 18.6 C 20.9 km/h
436 09-05-2015 12:15:00 18.5 C 10.76 g/m*3 18.5 C 20.9 km/h
437 09-05-2015 12:20:00 18.3 C 10.48 g/m*3 18.3 C 14.5 km/h
438 09-05-2015 12:25:00 18.3 C 10.63 g/m*3 18.3 C 19.3 km/h
439 09-05-2015 12:30:00 18.3 C 10.63 g/m*3 18.3 C 12.9 km/h
440 09-05-2015 12:35:00 18.2 C 10.41 g/m*3 18.2 C 17.7 km/h
441 09-05-2015 12:40:00 18.2 C 10.57 g/m*3 18.2 C 12.9 km/h
442 09-05-2015 12:45:00 18.4 C 10.54 g/m*3 18.4 C 8.1 km/h
443 09-05-2015 12:50:00 18.7 C 10.73 g/m*3 18.7 C 9.7 km/h
444 09-05-2015 12:55:00 18.9 C 10.69 g/m*3 18.9 C 16.1 km/h
445 09-05-2015 13:00:00 18.9 C 10.53 g/m*3 18.9 C 12.9 km/h
446 09-05-2015 13:05:00 18.8 C 10.47 g/m*3 18.8 C 11.3 km/h
447 09-05-2015 13:10:00 18.8 C 10.63 g/m*3 18.8 C 16.1 km/h
448 09-05-2015 13:15:00 18.9 C 10.53 g/m*3 18.9 C 16.1 km/h
449 09-05-2015 13:20:00 19.2 C 10.72 g/m*3 19.2 C 9.7 km/h
450 09-05-2015 13:25:00 19.4 C 10.18 g/m*3 19.4 C 16.1 km/h
Sensor: Nr:Datum:Temp:Abs-Feuchte:Windchill:Wind:
Aussen-T/F 451 09-05-2015 13:30:00 19.6 C 10.13 g/m*3 19.6 C 20.9 km/h
452 09-05-2015 13:35:00 19.6 C 10.3 g/m*3 19.6 C 17.7 km/h
453 09-05-2015 13:40:00 19.9 C 10.48 g/m*3 19.9 C 14.5 km/h
454 09-05-2015 13:45:00 20.3 C 10.38 g/m*3 20.3 C 16.1 km/h
455 09-05-2015 13:50:00 20.5 C 10.14 g/m*3 20.5 C 14.5 km/h
456 09-05-2015 13:55:00 20.8 C 10.68 g/m*3 20.8 C 16.1 km/h
457 09-05-2015 14:00:00 20.9 C 10.2 g/m*3 20.9 C 14.5 km/h
458 09-05-2015 14:05:00 20.7 C 10.26 g/m*3 20.7 C 11.3 km/h
459 09-05-2015 14:10:00 20.7 C 10.08 g/m*3 20.7 C 17.7 km/h
460 09-05-2015 14:15:00 20.7 C 9.9 g/m*3 20.7 C 22.5 km/h
461 09-05-2015 14:20:00 21.2 C 10.01 g/m*3 21.2 C 19.3 km/h
462 09-05-2015 14:25:00 21.4 C 9.75 g/m*3 21.4 C 20.9 km/h
463 09-05-2015 14:30:00 21.5 C 9.62 g/m*3 21.5 C 17.7 km/h
464 09-05-2015 14:35:00 21.6 C 9.67 g/m*3 21.6 C 17.7 km/h
465 09-05-2015 14:40:00 21.4 C 9.75 g/m*3 21.4 C 20.9 km/h
466 09-05-2015 14:45:00 21.7 C 9.73 g/m*3 21.7 C 19.3 km/h
467 09-05-2015 14:50:00 21.8 C 9.4 g/m*3 21.8 C 19.3 km/h
468 09-05-2015 14:55:00 21.7 C 9.54 g/m*3 21.7 C 20.9 km/h
469 09-05-2015 15:00:00 21.6 C 9.29 g/m*3 21.6 C 11.3 km/h
470 09-05-2015 15:05:00 21.7 C 9.35 g/m*3 21.7 C 16.1 km/h
471 09-05-2015 15:10:00 22 C 9.51 g/m*3 22 C 20.9 km/h
472 09-05-2015 15:15:00 22.4 C 9.53 g/m*3 22.4 C 16.1 km/h
473 09-05-2015 15:20:00 22.3 C 9.08 g/m*3 22.3 C 19.3 km/h
474 09-05-2015 15:25:00 22 C 9.12 g/m*3 22 C 17.7 km/h
475 09-05-2015 15:30:00 21.6 C 8.91 g/m*3 21.6 C 17.7 km/h
Sensor: Nr:Datum:Temp:Abs-Feuchte:Windchill:Wind:
Aussen-T/F 476 09-05-2015 15:35:00 21.4 C 9.37 g/m*3 21.4 C 12.9 km/h
477 09-05-2015 15:40:00 21.6 C 9.1 g/m*3 21.6 C 11.3 km/h
478 09-05-2015 15:45:00 21.6 C 9.1 g/m*3 21.6 C 16.1 km/h
479 09-05-2015 15:50:00 21.6 C 9.1 g/m*3 21.6 C 17.7 km/h
480 09-05-2015 15:55:00 21.8 C 9.4 g/m*3 21.8 C 16.1 km/h
481 09-05-2015 16:00:00 22.2 C 9.23 g/m*3 22.2 C 14.5 km/h
482 09-05-2015 16:05:00 21.9 C 9.07 g/m*3 21.9 C 19.3 km/h
483 09-05-2015 16:10:00 21.7 C 9.16 g/m*3 21.7 C 25.7 km/h
484 09-05-2015 16:15:00 21.5 C 8.86 g/m*3 21.5 C 22.5 km/h
485 09-05-2015 16:20:00 20.9 C 8.74 g/m*3 20.9 C 16.1 km/h
486 09-05-2015 16:25:00 20.7 C 8.82 g/m*3 20.7 C 11.3 km/h
487 09-05-2015 16:30:00 20.6 C 9.13 g/m*3 20.6 C 8.1 km/h
488 09-05-2015 16:35:00 20.8 C 9.05 g/m*3 20.8 C 11.3 km/h
489 09-05-2015 16:40:00 21.4 C 9.56 g/m*3 21.4 C 17.7 km/h
490 09-05-2015 16:45:00 21.8 C 9.21 g/m*3 21.8 C 27.4 km/h
491 09-05-2015 16:50:00 21.8 C 8.83 g/m*3 21.8 C 27.4 km/h
492 09-05-2015 16:55:00 21.3 C 8.95 g/m*3 21.3 C 17.7 km/h
493 09-05-2015 17:00:00 21.2 C 9.08 g/m*3 21.2 C 17.7 km/h
494 09-05-2015 17:05:00 21.1 C 9.03 g/m*3 21.1 C 16.1 km/h
495 09-05-2015 17:10:00 21.3 C 8.95 g/m*3 21.3 C 14.5 km/h
496 09-05-2015 17:15:00 21.3 C 8.95 g/m*3 21.3 C 14.5 km/h
497 09-05-2015 17:20:00 21 C 8.98 g/m*3 21 C 16.1 km/h
498 09-05-2015 17:25:00 20.6 C 8.77 g/m*3 20.6 C 17.7 km/h
499 09-05-2015 17:30:00 20.3 C 8.79 g/m*3 20.3 C 17.7 km/h
500 09-05-2015 17:35:00 20.2 C 8.92 g/m*3 20.2 C 14.5 km/h
Sensor: Nr:Datum:Temp:Abs-Feuchte:Windchill:Wind:
Aussen-T/F 501 09-05-2015 17:40:00 20.6 C 9.13 g/m*3 20.6 C 20.9 km/h
502 09-05-2015 17:45:00 20.8 C 9.05 g/m*3 20.8 C 12.9 km/h
503 09-05-2015 17:50:00 20.9 C 9.11 g/m*3 20.9 C 14.5 km/h
504 09-05-2015 17:55:00 21.3 C 8.95 g/m*3 21.3 C 22.5 km/h
505 09-05-2015 18:00:00 21.2 C 9.08 g/m*3 21.2 C 9.7 km/h
506 09-05-2015 18:05:00 20.7 C 8.64 g/m*3 20.7 C 16.1 km/h
507 09-05-2015 18:10:00 20.3 C 8.62 g/m*3 20.3 C 9.7 km/h
508 09-05-2015 18:15:00 20.3 C 8.44 g/m*3 20.3 C 17.7 km/h
509 09-05-2015 18:20:00 20.6 C 8.41 g/m*3 20.6 C 22.5 km/h
510 09-05-2015 18:25:00 20.6 C 8.41 g/m*3 20.6 C 12.9 km/h
511 09-05-2015 18:30:00 20.3 C 8.44 g/m*3 20.3 C 12.9 km/h
512 09-05-2015 18:35:00 20.1 C 8.34 g/m*3 20.1 C 16.1 km/h
513 09-05-2015 18:40:00 19.8 C 8.2 g/m*3 19.8 C 19.3 km/h
514 09-05-2015 18:45:00 19.7 C 8.32 g/m*3 19.7 C 14.5 km/h
515 09-05-2015 18:50:00 19.7 C 8.49 g/m*3 19.7 C 4.8 km/h
516 09-05-2015 18:55:00 19.6 C 8.44 g/m*3 19.6 C 8.1 km/h
517 09-05-2015 19:00:00 19.4 C 8.51 g/m*3 19.4 C 6.4 km/h
518 09-05-2015 19:05:00 19.3 C 8.46 g/m*3 19.3 C 8.1 km/h
519 09-05-2015 19:10:00 19.2 C 8.57 g/m*3 19.2 C 14.5 km/h
520 09-05-2015 19:15:00 18.9 C 9.56 g/m*3 18.9 C 11.3 km/h
521 09-05-2015 19:20:00 17.6 C 10.2 g/m*3 17.6 C 32.2 km/h
522 09-05-2015 19:25:00 15.6 C 10.24 g/m*3 15.6 C 19.3 km/h
523 09-05-2015 19:30:00 14.8 C 10.39 g/m*3 14.8 C 19.3 km/h
524 09-05-2015 19:35:00 14.4 C 10.51 g/m*3 14.4 C 8.1 km/h
525 09-05-2015 19:40:00 14.4 C 10.63 g/m*3 14.4 C 3.2 km/h
Sensor: Nr:Datum:Temp:Abs-Feuchte:Windchill:Wind:
Aussen-T/F 526 09-05-2015 19:45:00 14.3 C 10.81 g/m*3 14.3 C 3.2 km/h
527 09-05-2015 19:50:00 14.1 C 10.68 g/m*3 14.1 C 3.2 km/h
528 09-05-2015 19:55:00 14.1 C 10.92 g/m*3 14.1 C 3.2 km/h
529 09-05-2015 20:00:00 14.2 C 11.11 g/m*3 14.2 C 3.2 km/h
530 09-05-2015 20:05:00 14.3 C 11.06 g/m*3 14.3 C 3.2 km/h
531 09-05-2015 20:10:00 14.3 C 10.81 g/m*3 14.3 C 3.2 km/h
532 09-05-2015 20:15:00 14.4 C 10.75 g/m*3 14.4 C 3.2 km/h
533 09-05-2015 20:20:00 14.3 C 10.81 g/m*3 14.3 C 3.2 km/h
534 09-05-2015 20:25:00 14.3 C 10.81 g/m*3 14.3 C 3.2 km/h
535 09-05-2015 20:30:00 14.1 C 10.68 g/m*3 14.1 C 1.6 km/h
536 09-05-2015 20:35:00 13.9 C 10.67 g/m*3 13.9 C 3.2 km/h
537 09-05-2015 20:40:00 13.6 C 10.59 g/m*3 13.6 C 3.2 km/h
538 09-05-2015 20:45:00 13.6 C 10.59 g/m*3 13.6 C 1.6 km/h
539 09-05-2015 20:50:00 13.2 C 10.45 g/m*3 13.2 C 1.6 km/h
540 09-05-2015 20:55:00 13 C 10.43 g/m*3 13 C 3.2 km/h
541 09-05-2015 21:00:00 13 C 10.43 g/m*3 13 C 1.6 km/h
542 09-05-2015 21:05:00 13 C 10.43 g/m*3 13 C 1.6 km/h
543 09-05-2015 21:10:00 12.4 C 10.16 g/m*3 12.4 C 3.2 km/h
544 09-05-2015 21:15:00 12.3 C 10.1 g/m*3 12.3 C 3.2 km/h
545 09-05-2015 21:20:00 12.3 C 10.21 g/m*3 12.3 C 1.6 km/h
546 09-05-2015 21:25:00 12.3 C 10.21 g/m*3 12.3 C 1.6 km/h
547 09-05-2015 21:30:00 12.4 C 10.27 g/m*3 12.4 C 1.6 km/h
548 09-05-2015 21:35:00 12.4 C 10.27 g/m*3 12.4 C 1.6 km/h
549 09-05-2015 21:40:00 12.6 C 10.4 g/m*3 12.6 C 1.6 km/h
550 09-05-2015 21:45:00 12.6 C 10.4 g/m*3 12.6 C 1.6 km/h
Sensor: Nr:Datum:Temp:Abs-Feuchte:Windchill:Wind:
Aussen-T/F 551 09-05-2015 21:50:00 12.7 C 10.46 g/m*3 12.7 C 3.2 km/h
552 09-05-2015 21:55:00 12.6 C 10.4 g/m*3 12.6 C 1.6 km/h
553 09-05-2015 22:00:00 12.6 C 10.29 g/m*3 12.6 C 1.6 km/h
554 09-05-2015 22:05:00 12.5 C 10.22 g/m*3 12.5 C 1.6 km/h
555 09-05-2015 22:10:00 12.4 C 10.16 g/m*3 12.4 C 1.6 km/h
556 09-05-2015 22:15:00 12.3 C 10.1 g/m*3 12.3 C 3.2 km/h
557 09-05-2015 22:20:00 12.2 C 10.04 g/m*3 12.2 C 3.2 km/h
558 09-05-2015 22:25:00 12.1 C 9.87 g/m*3 12.1 C 3.2 km/h
559 09-05-2015 22:30:00 12.1 C 9.87 g/m*3 12.1 C 1.6 km/h
560 09-05-2015 22:35:00 12.1 C 9.87 g/m*3 12.1 C 1.6 km/h
561 09-05-2015 22:40:00 11.9 C 9.74 g/m*3 11.9 C 3.2 km/h
562 09-05-2015 22:45:00 11.8 C 9.68 g/m*3 11.8 C 3.2 km/h
563 09-05-2015 22:50:00 11.8 C 9.79 g/m*3 11.8 C 3.2 km/h
564 09-05-2015 22:55:00 11.7 C 9.73 g/m*3 11.7 C 4.8 km/h
565 09-05-2015 23:00:00 11.7 C 9.73 g/m*3 11.7 C 3.2 km/h
566 09-05-2015 23:05:00 11.7 C 9.73 g/m*3 11.7 C 3.2 km/h
567 09-05-2015 23:10:00 11.7 C 9.62 g/m*3 11.7 C 1.6 km/h
568 09-05-2015 23:15:00 11.6 C 9.56 g/m*3 11.6 C 3.2 km/h
569 09-05-2015 23:20:00 11.6 C 9.56 g/m*3 11.6 C 1.6 km/h
570 09-05-2015 23:25:00 11.6 C 9.56 g/m*3 11.6 C 0 km/h
571 09-05-2015 23:30:00 11.4 C 9.44 g/m*3 11.4 C 1.6 km/h
572 09-05-2015 23:35:00 11.4 C 9.55 g/m*3 11.4 C 1.6 km/h
573 09-05-2015 23:40:00 11.3 C 9.49 g/m*3 11.3 C 3.2 km/h
574 09-05-2015 23:45:00 11.3 C 9.38 g/m*3 11.3 C 3.2 km/h
575 09-05-2015 23:50:00 11.3 C 9.49 g/m*3 11.3 C 3.2 km/h
Sensor: Nr:Datum:Temp:Abs-Feuchte:Windchill:Wind:
Aussen-T/F 576 09-05-2015 23:55:00 11.4 C 9.44 g/m*3 11.4 C 4.8 km/h
577 10-05-2015 00:00:00 11.4 C 9.44 g/m*3 11.4 C 1.6 km/h
578 10-05-2015 00:05:00 11.3 C 9.38 g/m*3 11.3 C 1.6 km/h
579 10-05-2015 00:10:00 11.3 C 9.38 g/m*3 11.3 C 3.2 km/h
580 10-05-2015 00:15:00 11.3 C 9.38 g/m*3 11.3 C 3.2 km/h
581 10-05-2015 00:20:00 11.3 C 9.28 g/m*3 11.3 C 1.6 km/h
582 10-05-2015 00:25:00 11.2 C 9.33 g/m*3 11.2 C 1.6 km/h
583 10-05-2015 00:30:00 11.1 C 9.27 g/m*3 11.1 C 0 km/h
584 10-05-2015 00:35:00 10.9 C 9.15 g/m*3 10.9 C 0 km/h
585 10-05-2015 00:40:00 10.8 C 9.09 g/m*3 10.8 C 0 km/h
586 10-05-2015 00:45:00 10.7 C 9.13 g/m*3 10.7 C 0 km/h
587 10-05-2015 00:50:00 10.6 C 9.08 g/m*3 10.6 C 0 km/h
588 10-05-2015 00:55:00 10.4 C 8.96 g/m*3 10.4 C 0 km/h
589 10-05-2015 01:00:00 10.4 C 8.96 g/m*3 10.4 C 0 km/h
590 10-05-2015 01:05:00 10.4 C 8.96 g/m*3 10.4 C 0 km/h
591 10-05-2015 01:10:00 10.4 C 9.06 g/m*3 10.4 C 1.6 km/h
592 10-05-2015 01:15:00 10.4 C 9.06 g/m*3 10.4 C 1.6 km/h
593 10-05-2015 01:20:00 10.5 C 9.12 g/m*3 10.5 C 0 km/h
594 10-05-2015 01:25:00 10.5 C 9.02 g/m*3 10.5 C 1.6 km/h
595 10-05-2015 01:30:00 10.6 C 9.08 g/m*3 10.6 C 3.2 km/h
596 10-05-2015 01:35:00 10.8 C 9.19 g/m*3 10.8 C 1.6 km/h
597 10-05-2015 01:40:00 10.8 C 9.09 g/m*3 10.8 C 4.8 km/h
598 10-05-2015 01:45:00 10.8 C 9.09 g/m*3 10.8 C 3.2 km/h
599 10-05-2015 01:50:00 10.7 C 9.04 g/m*3 10.7 C 4.8 km/h
600 10-05-2015 01:55:00 10.7 C 9.04 g/m*3 10.7 C 1.6 km/h
Sensor: Nr:Datum:Temp:Abs-Feuchte:Windchill:Wind:
Aussen-T/F 601 10-05-2015 02:00:00 10.6 C 8.98 g/m*3 10.6 C 1.6 km/h
602 10-05-2015 02:05:00 10.6 C 8.98 g/m*3 10.6 C 1.6 km/h
603 10-05-2015 02:10:00 10.5 C 8.92 g/m*3 10.5 C 3.2 km/h
604 10-05-2015 02:15:00 10.4 C 8.87 g/m*3 10.4 C 0 km/h
605 10-05-2015 02:20:00 10.3 C 8.81 g/m*3 10.3 C 0 km/h
606 10-05-2015 02:25:00 10.3 C 8.91 g/m*3 10.3 C 0 km/h
607 10-05-2015 02:30:00 10.3 C 8.91 g/m*3 10.3 C 0 km/h
608 10-05-2015 02:35:00 10.2 C 8.85 g/m*3 10.2 C 1.6 km/h
609 10-05-2015 02:40:00 10.2 C 8.85 g/m*3 10.2 C 0 km/h
610 10-05-2015 02:45:00 10.1 C 8.79 g/m*3 10.1 C 0 km/h
611 10-05-2015 02:50:00 10.1 C 8.79 g/m*3 10.1 C 0 km/h
612 10-05-2015 02:55:00 10 C 8.74 g/m*3 10 C 0 km/h
613 10-05-2015 03:00:00 10 C 8.74 g/m*3 10 C 0 km/h
614 10-05-2015 03:05:00 9.9 C 8.68 g/m*3 9.9 C 1.6 km/h
615 10-05-2015 03:10:00 9.9 C 8.68 g/m*3 9.9 C 0 km/h
616 10-05-2015 03:15:00 9.9 C 8.68 g/m*3 9.9 C 0 km/h
617 10-05-2015 03:20:00 9.8 C 8.63 g/m*3 9.8 C 1.6 km/h
618 10-05-2015 03:25:00 9.8 C 8.63 g/m*3 9.8 C 0 km/h
619 10-05-2015 03:30:00 9.8 C 8.63 g/m*3 9.8 C 0 km/h
620 10-05-2015 03:35:00 9.8 C 8.72 g/m*3 9.8 C 0 km/h
621 10-05-2015 03:40:00 9.8 C 8.63 g/m*3 9.8 C 0 km/h
622 10-05-2015 03:45:00 9.8 C 8.63 g/m*3 9.8 C 1.6 km/h
623 10-05-2015 03:50:00 9.8 C 8.72 g/m*3 9.8 C 4.8 km/h
624 10-05-2015 03:55:00 9.8 C 8.72 g/m*3 9.8 C 3.2 km/h
625 10-05-2015 04:00:00 9.9 C 8.68 g/m*3 9.9 C 3.2 km/h
Sensor: Nr:Datum:Temp:Abs-Feuchte:Windchill:Wind:
Aussen-T/F 626 10-05-2015 04:05:00 9.9 C 8.68 g/m*3 9.9 C 4.8 km/h
627 10-05-2015 04:10:00 9.9 C 8.68 g/m*3 9.9 C 1.6 km/h
628 10-05-2015 04:15:00 10.1 C 8.7 g/m*3 9.48 C 6.4 km/h
629 10-05-2015 04:20:00 10.2 C 8.66 g/m*3 10.2 C 3.2 km/h
630 10-05-2015 04:25:00 10.3 C 8.62 g/m*3 10.3 C 1.6 km/h
631 10-05-2015 04:30:00 10.4 C 8.58 g/m*3 10.4 C 3.2 km/h
632 10-05-2015 04:35:00 10.4 C 8.48 g/m*3 10.4 C 3.2 km/h
633 10-05-2015 04:40:00 10.4 C 8.48 g/m*3 10.4 C 1.6 km/h
634 10-05-2015 04:45:00 10.4 C 8.48 g/m*3 10.4 C 3.2 km/h
635 10-05-2015 04:50:00 10.4 C 8.48 g/m*3 10.4 C 1.6 km/h
636 10-05-2015 04:55:00 10.3 C 8.43 g/m*3 10.3 C 3.2 km/h
637 10-05-2015 05:00:00 10.1 C 8.42 g/m*3 10.1 C 0 km/h
638 10-05-2015 05:05:00 9.9 C 8.31 g/m*3 9.9 C 0 km/h
639 10-05-2015 05:10:00 9.7 C 8.3 g/m*3 9.7 C 1.6 km/h
640 10-05-2015 05:15:00 9.6 C 8.34 g/m*3 9.6 C 1.6 km/h
641 10-05-2015 05:20:00 9.4 C 8.23 g/m*3 9.4 C 0 km/h
642 10-05-2015 05:25:00 9.3 C 8.18 g/m*3 9.3 C 0 km/h
643 10-05-2015 05:30:00 9.3 C 8.18 g/m*3 9.3 C 4.8 km/h
644 10-05-2015 05:35:00 9.3 C 8.18 g/m*3 9.3 C 3.2 km/h
645 10-05-2015 05:40:00 9.3 C 8.18 g/m*3 9.3 C 0 km/h
646 10-05-2015 05:45:00 9.2 C 8.22 g/m*3 9.2 C 1.6 km/h
647 10-05-2015 05:50:00 9.1 C 8.16 g/m*3 9.1 C 0 km/h
648 10-05-2015 05:55:00 9.1 C 8.16 g/m*3 9.1 C 4.8 km/h
649 10-05-2015 06:00:00 9 C 8.11 g/m*3 9 C 0 km/h
650 10-05-2015 06:05:00 8.9 C 8.15 g/m*3 8.9 C 0 km/h
Sensor: Nr:Datum:Temp:Abs-Feuchte:Windchill:Wind:
Aussen-T/F 651 10-05-2015 06:10:00 8.9 C 8.15 g/m*3 8.9 C 0 km/h
652 10-05-2015 06:15:00 9.1 C 8.25 g/m*3 9.1 C 0 km/h
653 10-05-2015 06:20:00 9.1 C 8.25 g/m*3 9.1 C 3.2 km/h
654 10-05-2015 06:25:00 9.2 C 8.3 g/m*3 9.2 C 1.6 km/h
655 10-05-2015 06:30:00 9.2 C 8.3 g/m*3 9.2 C 3.2 km/h
656 10-05-2015 06:35:00 9.3 C 8.36 g/m*3 9.3 C 3.2 km/h
657 10-05-2015 06:40:00 9.4 C 8.41 g/m*3 9.4 C 3.2 km/h
658 10-05-2015 06:45:00 9.4 C 8.41 g/m*3 9.4 C 1.6 km/h
659 10-05-2015 06:50:00 9.5 C 8.37 g/m*3 9.5 C 4.8 km/h
660 10-05-2015 06:55:00 9.6 C 8.43 g/m*3 8.91 C 6.4 km/h
661 10-05-2015 07:00:00 9.6 C 8.43 g/m*3 9.6 C 4.8 km/h
662 10-05-2015 07:05:00 9.7 C 8.48 g/m*3 9.7 C 3.2 km/h
663 10-05-2015 07:10:00 9.8 C 8.54 g/m*3 8.18 C 11.3 km/h
664 10-05-2015 07:15:00 9.9 C 8.5 g/m*3 9.9 C 4.8 km/h
665 10-05-2015 07:20:00 10.1 C 8.7 g/m*3 9.48 C 6.4 km/h
666 10-05-2015 07:25:00 10.2 C 8.66 g/m*3 9.22 C 8.1 km/h
667 10-05-2015 07:30:00 10.2 C 8.66 g/m*3 9.22 C 8.1 km/h
668 10-05-2015 07:35:00 10.3 C 8.71 g/m*3 9.72 C 6.4 km/h
669 10-05-2015 07:40:00 10.3 C 8.71 g/m*3 10.3 C 4.8 km/h
670 10-05-2015 07:45:00 10.4 C 8.67 g/m*3 10.4 C 4.8 km/h
671 10-05-2015 07:50:00 10.4 C 8.67 g/m*3 9.83 C 6.4 km/h
672 10-05-2015 07:55:00 10.5 C 8.83 g/m*3 10.5 C 4.8 km/h
673 10-05-2015 08:00:00 10.5 C 8.73 g/m*3 9.28 C 9.7 km/h
674 10-05-2015 08:05:00 10.6 C 8.78 g/m*3 9.14 C 11.3 km/h
675 10-05-2015 08:10:00 10.7 C 8.94 g/m*3 9.52 C 9.7 km/h
Sensor: Nr:Datum:Temp:Abs-Feuchte:Windchill:Wind:
Aussen-T/F 676 10-05-2015 08:15:00 10.8 C 8.99 g/m*3 10.29 C 6.4 km/h
677 10-05-2015 08:20:00 10.9 C 9.05 g/m*3 9.76 C 9.7 km/h
678 10-05-2015 08:25:00 11.1 C 9.07 g/m*3 11.1 C 9.7 km/h
679 10-05-2015 08:30:00 11.2 C 9.12 g/m*3 11.2 C 6.4 km/h
680 10-05-2015 08:35:00 11.4 C 9.24 g/m*3 11.4 C 8.1 km/h
681 10-05-2015 08:40:00 11.6 C 9.25 g/m*3 11.6 C 6.4 km/h
682 10-05-2015 08:45:00 11.7 C 9.31 g/m*3 11.7 C 8.1 km/h
683 10-05-2015 08:50:00 12 C 9.38 g/m*3 12 C 8.1 km/h
684 10-05-2015 08:55:00 12.2 C 9.5 g/m*3 12.2 C 8.1 km/h
685 10-05-2015 09:00:00 12.3 C 9.45 g/m*3 12.3 C 6.4 km/h
686 10-05-2015 09:05:00 12.3 C 9.45 g/m*3 12.3 C 6.4 km/h
687 10-05-2015 09:10:00 12.4 C 9.51 g/m*3 12.4 C 6.4 km/h
688 10-05-2015 09:15:00 12.4 C 9.4 g/m*3 12.4 C 4.8 km/h
689 10-05-2015 09:20:00 12.4 C 9.4 g/m*3 12.4 C 4.8 km/h
690 10-05-2015 09:25:00 12.6 C 9.51 g/m*3 12.6 C 4.8 km/h
691 10-05-2015 09:30:00 12.8 C 9.63 g/m*3 12.8 C 3.2 km/h
692 10-05-2015 09:35:00 12.9 C 9.58 g/m*3 12.9 C 3.2 km/h
693 10-05-2015 09:40:00 13.1 C 9.47 g/m*3 13.1 C 6.4 km/h
694 10-05-2015 09:45:00 13.2 C 9.42 g/m*3 13.2 C 6.4 km/h
695 10-05-2015 09:50:00 13.3 C 9.24 g/m*3 13.3 C 4.8 km/h
696 10-05-2015 09:55:00 13.3 C 9.01 g/m*3 13.3 C 1.6 km/h
697 10-05-2015 10:00:00 13.4 C 9.07 g/m*3 13.4 C 8.1 km/h
698 10-05-2015 10:05:00 13.7 C 9.12 g/m*3 13.7 C 9.7 km/h
699 10-05-2015 10:10:00 13.8 C 9.17 g/m*3 13.8 C 3.2 km/h
700 10-05-2015 10:15:00 14.1 C 9.47 g/m*3 14.1 C 4.8 km/h
Sensor: Nr:Datum:Temp:Abs-Feuchte:Windchill:Wind:
Aussen-T/F 701 10-05-2015 10:20:00 14.7 C 9.69 g/m*3 14.7 C 6.4 km/h
702 10-05-2015 10:25:00 14.9 C 9.18 g/m*3 14.9 C 6.4 km/h
703 10-05-2015 10:30:00 14.9 C 9.05 g/m*3 14.9 C 4.8 km/h
704 10-05-2015 10:35:00 14.9 C 9.18 g/m*3 14.9 C 4.8 km/h
705 10-05-2015 10:40:00 14.9 C 9.05 g/m*3 14.9 C 3.2 km/h
706 10-05-2015 10:45:00 14.9 C 8.92 g/m*3 14.9 C 0 km/h
707 10-05-2015 10:50:00 14.9 C 9.05 g/m*3 14.9 C 1.6 km/h
708 10-05-2015 10:55:00 14.9 C 9.18 g/m*3 14.9 C 9.7 km/h
709 10-05-2015 11:00:00 15.2 C 9.22 g/m*3 15.2 C 4.8 km/h
710 10-05-2015 11:05:00 15.4 C 9.33 g/m*3 15.4 C 4.8 km/h
711 10-05-2015 11:10:00 15.6 C 9.44 g/m*3 15.6 C 3.2 km/h
712 10-05-2015 11:15:00 15.9 C 9.75 g/m*3 15.9 C 6.4 km/h
713 10-05-2015 11:20:00 16.3 C 9.85 g/m*3 16.3 C 6.4 km/h
714 10-05-2015 11:25:00 16.6 C 9.46 g/m*3 16.6 C 6.4 km/h
715 10-05-2015 11:30:00 17.1 C 9.75 g/m*3 17.1 C 8.1 km/h
716 10-05-2015 11:35:00 17.2 C 9.52 g/m*3 17.2 C 8.1 km/h
717 10-05-2015 11:40:00 17.3 C 10.02 g/m*3 17.3 C 6.4 km/h
718 10-05-2015 11:45:00 17.4 C 10.23 g/m*3 17.4 C 6.4 km/h
719 10-05-2015 11:50:00 17.3 C 9.58 g/m*3 17.3 C 6.4 km/h
720 10-05-2015 11:55:00 17.1 C 9.61 g/m*3 17.1 C 8.1 km/h
721 10-05-2015 12:00:00 17.2 C 9.81 g/m*3 17.2 C 6.4 km/h
722 10-05-2015 12:05:00 17.1 C 9.61 g/m*3 17.1 C 6.4 km/h
723 10-05-2015 12:10:00 16.9 C 9.64 g/m*3 16.9 C 1.6 km/h
724 10-05-2015 12:15:00 16.8 C 9.72 g/m*3 16.8 C 4.8 km/h
725 10-05-2015 12:20:00 16.7 C 9.38 g/m*3 16.7 C 0 km/h
Sensor: Nr:Datum:Temp:Abs-Feuchte:Windchill:Wind:
Aussen-T/F 726 10-05-2015 12:25:00 16.7 C 9.66 g/m*3 16.7 C 3.2 km/h
727 10-05-2015 12:30:00 16.8 C 9.58 g/m*3 16.8 C 3.2 km/h
728 10-05-2015 12:35:00 17 C 9.69 g/m*3 17 C 1.6 km/h
729 10-05-2015 12:40:00 17 C 9.12 g/m*3 17 C 3.2 km/h
730 10-05-2015 12:45:00 16.9 C 9.21 g/m*3 16.9 C 4.8 km/h
731 10-05-2015 12:50:00 17 C 9.41 g/m*3 17 C 3.2 km/h
732 10-05-2015 12:55:00 17 C 9.26 g/m*3 17 C 1.6 km/h
733 10-05-2015 13:00:00 17.3 C 10.02 g/m*3 17.3 C 1.6 km/h
734 10-05-2015 13:05:00 17.8 C 10.02 g/m*3 17.8 C 6.4 km/h
735 10-05-2015 13:10:00 17.8 C 9.41 g/m*3 17.8 C 4.8 km/h
736 10-05-2015 13:15:00 17.7 C 9.2 g/m*3 17.7 C 1.6 km/h
737 10-05-2015 13:20:00 17.4 C 8.89 g/m*3 17.4 C 0 km/h
738 10-05-2015 13:25:00 17.3 C 9.58 g/m*3 17.3 C 0 km/h
739 10-05-2015 13:30:00 17.5 C 9.99 g/m*3 17.5 C 4.8 km/h
740 10-05-2015 13:35:00 18.2 C 10.1 g/m*3 18.2 C 4.8 km/h
741 10-05-2015 13:40:00 18.8 C 9.34 g/m*3 18.8 C 6.4 km/h
742 10-05-2015 13:45:00 19.1 C 10.33 g/m*3 19.1 C 6.4 km/h
743 10-05-2015 13:50:00 19.3 C 9.79 g/m*3 19.3 C 3.2 km/h
744 10-05-2015 13:55:00 19.4 C 9.34 g/m*3 19.4 C 6.4 km/h
745 10-05-2015 14:00:00 19.6 C 9.79 g/m*3 19.6 C 8.1 km/h
746 10-05-2015 14:05:00 19.6 C 9.12 g/m*3 19.6 C 4.8 km/h
747 10-05-2015 14:10:00 19.7 C 9.34 g/m*3 19.7 C 6.4 km/h
748 10-05-2015 14:15:00 20.1 C 9.56 g/m*3 20.1 C 6.4 km/h
749 10-05-2015 14:20:00 20.3 C 9.5 g/m*3 20.3 C 8.1 km/h
750 10-05-2015 14:25:00 20.4 C 9.02 g/m*3 20.4 C 4.8 km/h
Sensor: Nr:Datum:Temp:Abs-Feuchte:Windchill:Wind:
Aussen-T/F 751 10-05-2015 14:30:00 20.5 C 9.43 g/m*3 20.5 C 3.2 km/h
752 10-05-2015 14:35:00 20.6 C 9.49 g/m*3 20.6 C 11.3 km/h
753 10-05-2015 14:40:00 20.5 C 9.43 g/m*3 20.5 C 8.1 km/h
754 10-05-2015 14:45:00 20.6 C 9.49 g/m*3 20.6 C 8.1 km/h
755 10-05-2015 14:50:00 20.6 C 9.49 g/m*3 20.6 C 8.1 km/h
756 10-05-2015 14:55:00 20.7 C 9.54 g/m*3 20.7 C 4.8 km/h
757 10-05-2015 15:00:00 20.9 C 9.83 g/m*3 20.9 C 9.7 km/h
758 10-05-2015 15:05:00 21.1 C 10.5 g/m*3 21.1 C 6.4 km/h
759 10-05-2015 15:10:00 21.1 C 9.03 g/m*3 21.1 C 4.8 km/h
760 10-05-2015 15:15:00 21.1 C 9.4 g/m*3 21.1 C 6.4 km/h
761 10-05-2015 15:20:00 21.1 C 9.58 g/m*3 21.1 C 8.1 km/h
762 10-05-2015 15:25:00 21.2 C 10.38 g/m*3 21.2 C 6.4 km/h
763 10-05-2015 15:30:00 21.4 C 9.19 g/m*3 21.4 C 9.7 km/h
764 10-05-2015 15:35:00 21.3 C 8.57 g/m*3 21.3 C 8.1 km/h
765 10-05-2015 15:40:00 21 C 8.79 g/m*3 21 C 9.7 km/h
766 10-05-2015 15:45:00 21.2 C 9.27 g/m*3 21.2 C 4.8 km/h
767 10-05-2015 15:50:00 21.3 C 8.95 g/m*3 21.3 C 4.8 km/h
768 10-05-2015 15:55:00 21.3 C 8.57 g/m*3 21.3 C 11.3 km/h
769 10-05-2015 16:00:00 21.4 C 8.81 g/m*3 21.4 C 6.4 km/h
770 10-05-2015 16:05:00 21.6 C 8.91 g/m*3 21.6 C 8.1 km/h
771 10-05-2015 16:10:00 21.7 C 9.16 g/m*3 21.7 C 8.1 km/h
772 10-05-2015 16:15:00 21.7 C 9.54 g/m*3 21.7 C 6.4 km/h
773 10-05-2015 16:20:00 21.8 C 8.63 g/m*3 21.8 C 6.4 km/h
774 10-05-2015 16:25:00 21.9 C 8.68 g/m*3 21.9 C 8.1 km/h
775 10-05-2015 16:30:00 22.3 C 9.68 g/m*3 22.3 C 6.4 km/h
Sensor: Nr:Datum:Temp:Abs-Feuchte:Windchill:Wind:
Aussen-T/F 776 10-05-2015 16:35:00 22.7 C 9.29 g/m*3 22.7 C 6.4 km/h
777 10-05-2015 16:40:00 22.7 C 8.69 g/m*3 22.7 C 9.7 km/h
778 10-05-2015 16:45:00 22.5 C 8.99 g/m*3 22.5 C 8.1 km/h
779 10-05-2015 16:50:00 22.5 C 9.39 g/m*3 22.5 C 11.3 km/h
780 10-05-2015 16:55:00 22.6 C 8.84 g/m*3 22.6 C 8.1 km/h
781 10-05-2015 17:00:00 22.6 C 8.84 g/m*3 22.6 C 8.1 km/h
782 10-05-2015 17:05:00 22.4 C 9.14 g/m*3 22.4 C 8.1 km/h
783 10-05-2015 17:10:00 22.7 C 9.29 g/m*3 22.7 C 4.8 km/h
784 10-05-2015 17:15:00 22.8 C 9.35 g/m*3 22.8 C 8.1 km/h
785 10-05-2015 17:20:00 22.9 C 8.79 g/m*3 22.9 C 8.1 km/h
786 10-05-2015 17:25:00 22.9 C 8.79 g/m*3 22.9 C 6.4 km/h
787 10-05-2015 17:30:00 22.8 C 8.74 g/m*3 22.8 C 3.2 km/h
788 10-05-2015 17:35:00 22.8 C 9.14 g/m*3 22.8 C 4.8 km/h
789 10-05-2015 17:40:00 22.6 C 8.84 g/m*3 22.6 C 6.4 km/h
790 10-05-2015 17:45:00 22.1 C 8.59 g/m*3 22.1 C 6.4 km/h
791 10-05-2015 17:50:00 21.8 C 9.21 g/m*3 21.8 C 3.2 km/h
792 10-05-2015 17:55:00 21.4 C 8.81 g/m*3 21.4 C 3.2 km/h
793 10-05-2015 18:00:00 21.4 C 9.37 g/m*3 21.4 C 4.8 km/h
794 10-05-2015 18:05:00 21.3 C 9.69 g/m*3 21.3 C 6.4 km/h
795 10-05-2015 18:10:00 21.3 C 8.95 g/m*3 21.3 C 4.8 km/h
796 10-05-2015 18:15:00 21.4 C 8.81 g/m*3 21.4 C 3.2 km/h
797 10-05-2015 18:20:00 21.4 C 8.81 g/m*3 21.4 C 8.1 km/h
798 10-05-2015 18:25:00 21.5 C 8.86 g/m*3 21.5 C 4.8 km/h
799 10-05-2015 18:30:00 21.6 C 9.1 g/m*3 21.6 C 3.2 km/h
800 10-05-2015 18:35:00 21.8 C 9.02 g/m*3 21.8 C 3.2 km/h
Sensor: Nr:Datum:Temp:Abs-Feuchte:Windchill:Wind:
Aussen-T/F 801 10-05-2015 18:40:00 21.7 C 8.58 g/m*3 21.7 C 6.4 km/h
802 10-05-2015 18:45:00 21.4 C 9 g/m*3 21.4 C 6.4 km/h
803 10-05-2015 18:50:00 21.4 C 9.19 g/m*3 21.4 C 4.8 km/h
804 10-05-2015 18:55:00 21.3 C 8.76 g/m*3 21.3 C 1.6 km/h
805 10-05-2015 19:00:00 21.2 C 9.08 g/m*3 21.2 C 3.2 km/h
806 10-05-2015 19:05:00 21 C 10.26 g/m*3 21 C 4.8 km/h
807 10-05-2015 19:10:00 20.8 C 9.42 g/m*3 20.8 C 1.6 km/h
808 10-05-2015 19:15:00 20.7 C 10.08 g/m*3 20.7 C 3.2 km/h
809 10-05-2015 19:20:00 20.4 C 10.61 g/m*3 20.4 C 0 km/h
810 10-05-2015 19:25:00 20.2 C 10.84 g/m*3 20.2 C 1.6 km/h
811 10-05-2015 19:30:00 19.9 C 11.17 g/m*3 19.9 C 0 km/h
812 10-05-2015 19:35:00 19.6 C 11.14 g/m*3 19.6 C 0 km/h
813 10-05-2015 19:40:00 19.2 C 11.21 g/m*3 19.2 C 1.6 km/h
814 10-05-2015 19:45:00 18.9 C 11.18 g/m*3 18.9 C 0 km/h
815 10-05-2015 19:50:00 18.6 C 10.66 g/m*3 18.6 C 0 km/h
816 10-05-2015 19:55:00 18.4 C 11.01 g/m*3 18.4 C 0 km/h
817 10-05-2015 20:00:00 18.1 C 10.97 g/m*3 18.1 C 0 km/h
818 10-05-2015 20:05:00 17.8 C 10.93 g/m*3 17.8 C 0 km/h
819 10-05-2015 20:10:00 17.5 C 10.73 g/m*3 17.5 C 0 km/h
820 10-05-2015 20:15:00 17.2 C 10.69 g/m*3 17.2 C 0 km/h
821 10-05-2015 20:20:00 17.1 C 10.77 g/m*3 17.1 C 0 km/h
822 10-05-2015 20:25:00 16.8 C 10.58 g/m*3 16.8 C 1.6 km/h
823 10-05-2015 20:30:00 16.4 C 10.61 g/m*3 16.4 C 0 km/h
824 10-05-2015 20:35:00 16.2 C 10.48 g/m*3 16.2 C 1.6 km/h
825 10-05-2015 20:40:00 15.9 C 10.43 g/m*3 15.9 C 1.6 km/h
Sensor: Nr:Datum:Temp:Abs-Feuchte:Windchill:Wind:
Aussen-T/F 826 10-05-2015 20:45:00 15.6 C 10.37 g/m*3 15.6 C 1.6 km/h
827 10-05-2015 20:50:00 15.4 C 10.25 g/m*3 15.4 C 1.6 km/h
828 10-05-2015 20:55:00 15.2 C 10.12 g/m*3 15.2 C 1.6 km/h
829 10-05-2015 21:00:00 15 C 10 g/m*3 15 C 1.6 km/h
830 10-05-2015 21:05:00 14.8 C 9.88 g/m*3 14.8 C 1.6 km/h
831 10-05-2015 21:10:00 14.6 C 9.76 g/m*3 14.6 C 1.6 km/h
832 10-05-2015 21:15:00 14.4 C 9.77 g/m*3 14.4 C 1.6 km/h
833 10-05-2015 21:20:00 14.3 C 9.71 g/m*3 14.3 C 1.6 km/h
834 10-05-2015 21:25:00 14.3 C 9.71 g/m*3 14.3 C 1.6 km/h
835 10-05-2015 21:30:00 14.2 C 9.77 g/m*3 14.2 C 1.6 km/h
836 10-05-2015 21:35:00 14.1 C 9.71 g/m*3 14.1 C 1.6 km/h
837 10-05-2015 21:40:00 13.9 C 9.59 g/m*3 13.9 C 1.6 km/h
838 10-05-2015 21:45:00 13.9 C 9.59 g/m*3 13.9 C 1.6 km/h
839 10-05-2015 21:50:00 13.8 C 9.53 g/m*3 13.8 C 1.6 km/h
840 10-05-2015 21:55:00 13.7 C 9.47 g/m*3 13.7 C 1.6 km/h
841 10-05-2015 22:00:00 13.7 C 9.47 g/m*3 13.7 C 0 km/h
842 10-05-2015 22:05:00 13.6 C 9.42 g/m*3 13.6 C 0 km/h
843 10-05-2015 22:10:00 13.6 C 9.3 g/m*3 13.6 C 0 km/h
844 10-05-2015 22:15:00 13.4 C 9.53 g/m*3 13.4 C 1.6 km/h
845 10-05-2015 22:20:00 13.4 C 9.53 g/m*3 13.4 C 0 km/h
846 10-05-2015 22:25:00 13.4 C 9.53 g/m*3 13.4 C 0 km/h
847 10-05-2015 22:30:00 13.3 C 9.24 g/m*3 13.3 C 0 km/h
848 10-05-2015 22:35:00 13.2 C 9.3 g/m*3 13.2 C 0 km/h
849 10-05-2015 22:40:00 13 C 9.19 g/m*3 13 C 0 km/h
850 10-05-2015 22:45:00 12.9 C 9.13 g/m*3 12.9 C 0 km/h
Sensor: Nr:Datum:Temp:Abs-Feuchte:Windchill:Wind:
Aussen-T/F 851 10-05-2015 22:50:00 12.8 C 9.3 g/m*3 12.8 C 0 km/h
852 10-05-2015 22:55:00 12.8 C 9.3 g/m*3 12.8 C 0 km/h
853 10-05-2015 23:00:00 12.8 C 9.3 g/m*3 12.8 C 0 km/h
854 10-05-2015 23:05:00 12.7 C 9.24 g/m*3 12.7 C 0 km/h
855 10-05-2015 23:10:00 12.6 C 9.07 g/m*3 12.6 C 1.6 km/h
856 10-05-2015 23:15:00 12.6 C 9.07 g/m*3 12.6 C 0 km/h
857 10-05-2015 23:20:00 12.6 C 9.18 g/m*3 12.6 C 0 km/h
858 10-05-2015 23:25:00 12.4 C 9.07 g/m*3 12.4 C 0 km/h
859 10-05-2015 23:30:00 12.4 C 9.29 g/m*3 12.4 C 0 km/h
860 10-05-2015 23:35:00 12.3 C 9.12 g/m*3 12.3 C 0 km/h
861 10-05-2015 23:40:00 12.3 C 9.12 g/m*3 12.3 C 0 km/h
862 10-05-2015 23:45:00 12.3 C 9.12 g/m*3 12.3 C 0 km/h
863 10-05-2015 23:50:00 12.3 C 9.12 g/m*3 12.3 C 0 km/h
864 10-05-2015 23:55:00 12.2 C 9.06 g/m*3 12.2 C 1.6 km/h
865 11-05-2015 00:00:00 12.1 C 9.01 g/m*3 12.1 C 0 km/h
866 11-05-2015 00:05:00 11.9 C 9 g/m*3 11.9 C 1.6 km/h
867 11-05-2015 00:10:00 11.8 C 9.05 g/m*3 11.8 C 1.6 km/h
868 11-05-2015 00:15:00 11.6 C 8.94 g/m*3 11.6 C 0 km/h
869 11-05-2015 00:20:00 11.5 C 8.88 g/m*3 11.5 C 0 km/h
870 11-05-2015 00:25:00 11.4 C 8.93 g/m*3 11.4 C 0 km/h
871 11-05-2015 00:30:00 11.3 C 8.87 g/m*3 11.3 C 0 km/h
872 11-05-2015 00:35:00 11.3 C 8.87 g/m*3 11.3 C 0 km/h
873 11-05-2015 00:40:00 11.3 C 8.87 g/m*3 11.3 C 1.6 km/h
874 11-05-2015 00:45:00 11.3 C 8.98 g/m*3 11.3 C 1.6 km/h
875 11-05-2015 00:50:00 11.2 C 8.82 g/m*3 11.2 C 0 km/h
Sensor: Nr:Datum:Temp:Abs-Feuchte:Windchill:Wind:
Aussen-T/F 876 11-05-2015 00:55:00 11.3 C 8.98 g/m*3 11.3 C 0 km/h
877 11-05-2015 01:00:00 11.3 C 8.98 g/m*3 11.3 C 0 km/h
878 11-05-2015 01:05:00 11.3 C 8.98 g/m*3 11.3 C 0 km/h
879 11-05-2015 01:10:00 11.3 C 8.98 g/m*3 11.3 C 0 km/h
880 11-05-2015 01:15:00 11.3 C 8.98 g/m*3 11.3 C 0 km/h
881 11-05-2015 01:20:00 11.4 C 9.03 g/m*3 11.4 C 0 km/h
882 11-05-2015 01:25:00 11.4 C 8.93 g/m*3 11.4 C 0 km/h
883 11-05-2015 01:30:00 11.4 C 8.93 g/m*3 11.4 C 0 km/h
884 11-05-2015 01:35:00 11.4 C 8.93 g/m*3 11.4 C 0 km/h
885 11-05-2015 01:40:00 11.4 C 8.83 g/m*3 11.4 C 0 km/h
886 11-05-2015 01:45:00 11.4 C 8.83 g/m*3 11.4 C 0 km/h
887 11-05-2015 01:50:00 11.4 C 8.83 g/m*3 11.4 C 0 km/h
888 11-05-2015 01:55:00 11.3 C 8.77 g/m*3 11.3 C 0 km/h
889 11-05-2015 02:00:00 11.1 C 8.76 g/m*3 11.1 C 0 km/h
890 11-05-2015 02:05:00 11 C 8.71 g/m*3 11 C 0 km/h
891 11-05-2015 02:10:00 10.9 C 8.75 g/m*3 10.9 C 0 km/h
892 11-05-2015 02:15:00 10.7 C 8.64 g/m*3 10.7 C 0 km/h
893 11-05-2015 02:20:00 10.6 C 8.59 g/m*3 10.6 C 0 km/h
894 11-05-2015 02:25:00 10.6 C 8.69 g/m*3 10.6 C 0 km/h
895 11-05-2015 02:30:00 10.4 C 8.58 g/m*3 10.4 C 0 km/h
896 11-05-2015 02:35:00 10.3 C 8.52 g/m*3 10.3 C 0 km/h
897 11-05-2015 02:40:00 10.3 C 8.52 g/m*3 10.3 C 0 km/h
898 11-05-2015 02:45:00 10.2 C 8.56 g/m*3 10.2 C 0 km/h
899 11-05-2015 02:50:00 10.1 C 8.51 g/m*3 10.1 C 0 km/h
900 11-05-2015 02:55:00 9.9 C 8.4 g/m*3 9.9 C 0 km/h
Sensor: Nr:Datum:Temp:Abs-Feuchte:Windchill:Wind:
Aussen-T/F 901 11-05-2015 03:00:00 9.9 C 8.5 g/m*3 9.9 C 0 km/h
902 11-05-2015 03:05:00 9.9 C 8.5 g/m*3 9.9 C 0 km/h
903 11-05-2015 03:10:00 9.8 C 8.44 g/m*3 9.8 C 0 km/h
904 11-05-2015 03:15:00 9.7 C 8.39 g/m*3 9.7 C 0 km/h
905 11-05-2015 03:20:00 9.6 C 8.34 g/m*3 9.6 C 0 km/h
906 11-05-2015 03:25:00 9.6 C 8.34 g/m*3 9.6 C 0 km/h
907 11-05-2015 03:30:00 9.6 C 8.43 g/m*3 9.6 C 0 km/h
908 11-05-2015 03:35:00 9.5 C 8.37 g/m*3 9.5 C 0 km/h
909 11-05-2015 03:40:00 9.5 C 8.37 g/m*3 9.5 C 0 km/h
910 11-05-2015 03:45:00 9.4 C 8.32 g/m*3 9.4 C 0 km/h
911 11-05-2015 03:50:00 9.4 C 8.32 g/m*3 9.4 C 0 km/h
912 11-05-2015 03:55:00 9.4 C 8.32 g/m*3 9.4 C 0 km/h
913 11-05-2015 04:00:00 9.3 C 8.27 g/m*3 9.3 C 0 km/h
914 11-05-2015 04:05:00 9.3 C 8.27 g/m*3 9.3 C 0 km/h
915 11-05-2015 04:10:00 9.3 C 8.36 g/m*3 9.3 C 0 km/h
916 11-05-2015 04:15:00 9.3 C 8.36 g/m*3 9.3 C 0 km/h
917 11-05-2015 04:20:00 9.2 C 8.3 g/m*3 9.2 C 0 km/h
918 11-05-2015 04:25:00 9.2 C 8.3 g/m*3 9.2 C 0 km/h
919 11-05-2015 04:30:00 9.2 C 8.3 g/m*3 9.2 C 0 km/h
920 11-05-2015 04:35:00 9.2 C 8.3 g/m*3 9.2 C 0 km/h
921 11-05-2015 04:40:00 9.2 C 8.3 g/m*3 9.2 C 0 km/h
922 11-05-2015 04:45:00 9.1 C 8.25 g/m*3 9.1 C 0 km/h
923 11-05-2015 04:50:00 9.1 C 8.25 g/m*3 9.1 C 0 km/h
924 11-05-2015 04:55:00 9 C 8.2 g/m*3 9 C 0 km/h
925 11-05-2015 05:00:00 8.9 C 8.15 g/m*3 8.9 C 0 km/h
Sensor: Nr:Datum:Temp:Abs-Feuchte:Windchill:Wind:
Aussen-T/F 926 11-05-2015 05:05:00 8.9 C 8.15 g/m*3 8.9 C 0 km/h
927 11-05-2015 05:10:00 8.8 C 8.09 g/m*3 8.8 C 0 km/h
928 11-05-2015 05:15:00 8.7 C 8.04 g/m*3 8.7 C 0 km/h
929 11-05-2015 05:20:00 8.7 C 8.04 g/m*3 8.7 C 0 km/h
930 11-05-2015 05:25:00 8.7 C 8.13 g/m*3 8.7 C 0 km/h
931 11-05-2015 05:30:00 8.7 C 8.13 g/m*3 8.7 C 0 km/h
932 11-05-2015 05:35:00 8.7 C 8.13 g/m*3 8.7 C 0 km/h
933 11-05-2015 05:40:00 8.7 C 8.13 g/m*3 8.7 C 0 km/h
934 11-05-2015 05:45:00 8.6 C 8.08 g/m*3 8.6 C 0 km/h
935 11-05-2015 05:50:00 8.6 C 8.08 g/m*3 8.6 C 0 km/h
936 11-05-2015 05:55:00 8.6 C 8.08 g/m*3 8.6 C 0 km/h
937 11-05-2015 06:00:00 8.5 C 8.03 g/m*3 8.5 C 0 km/h
938 11-05-2015 06:05:00 8.6 C 8.08 g/m*3 8.6 C 0 km/h
939 11-05-2015 06:10:00 8.6 C 8.08 g/m*3 8.6 C 0 km/h
940 11-05-2015 06:15:00 8.6 C 8.08 g/m*3 8.6 C 0 km/h
941 11-05-2015 06:20:00 8.7 C 8.13 g/m*3 8.7 C 0 km/h
942 11-05-2015 06:25:00 8.7 C 8.13 g/m*3 8.7 C 0 km/h
943 11-05-2015 06:30:00 8.7 C 8.13 g/m*3 8.7 C 0 km/h
944 11-05-2015 06:35:00 8.8 C 8.18 g/m*3 8.8 C 0 km/h
945 11-05-2015 06:40:00 8.8 C 8.18 g/m*3 8.8 C 0 km/h
946 11-05-2015 06:45:00 8.9 C 8.32 g/m*3 8.9 C 0 km/h
947 11-05-2015 06:50:00 9.1 C 8.43 g/m*3 9.1 C 0 km/h
948 11-05-2015 06:55:00 9.2 C 8.48 g/m*3 9.2 C 0 km/h
949 11-05-2015 07:00:00 9.3 C 8.54 g/m*3 9.3 C 0 km/h
950 11-05-2015 07:05:00 9.4 C 8.5 g/m*3 9.4 C 0 km/h
Sensor: Nr:Datum:Temp:Abs-Feuchte:Windchill:Wind:
Aussen-T/F 951 11-05-2015 07:10:00 9.6 C 8.61 g/m*3 9.6 C 0 km/h
952 11-05-2015 07:15:00 9.6 C 8.7 g/m*3 9.6 C 0 km/h
953 11-05-2015 07:20:00 9.7 C 8.67 g/m*3 9.7 C 0 km/h
954 11-05-2015 07:25:00 9.7 C 8.67 g/m*3 9.7 C 0 km/h
955 11-05-2015 07:30:00 9.8 C 8.72 g/m*3 9.8 C 0 km/h
956 11-05-2015 07:35:00 9.9 C 8.78 g/m*3 9.9 C 0 km/h
957 11-05-2015 07:40:00 10 C 8.83 g/m*3 10 C 0 km/h
958 11-05-2015 07:45:00 10.1 C 8.89 g/m*3 10.1 C 0 km/h
959 11-05-2015 07:50:00 10.2 C 8.85 g/m*3 10.2 C 0 km/h
960 11-05-2015 07:55:00 10.3 C 8.91 g/m*3 10.3 C 0 km/h
961 11-05-2015 08:00:00 10.6 C 9.08 g/m*3 10.6 C 0 km/h
962 11-05-2015 08:05:00 10.7 C 9.04 g/m*3 10.7 C 0 km/h
963 11-05-2015 08:10:00 10.8 C 9.09 g/m*3 10.8 C 0 km/h
964 11-05-2015 08:15:00 10.9 C 9.15 g/m*3 10.9 C 0 km/h
965 11-05-2015 08:20:00 11.1 C 9.17 g/m*3 11.1 C 0 km/h
966 11-05-2015 08:25:00 11.2 C 9.22 g/m*3 11.2 C 0 km/h
967 11-05-2015 08:30:00 11.4 C 9.24 g/m*3 11.4 C 0 km/h
968 11-05-2015 08:35:00 11.6 C 9.35 g/m*3 11.6 C 0 km/h
969 11-05-2015 08:40:00 11.8 C 9.47 g/m*3 11.8 C 0 km/h
970 11-05-2015 08:45:00 12 C 9.59 g/m*3 12 C 0 km/h
971 11-05-2015 08:50:00 12.3 C 9.56 g/m*3 12.3 C 0 km/h
972 11-05-2015 08:55:00 12.5 C 9.46 g/m*3 12.5 C 0 km/h
973 11-05-2015 09:00:00 12.6 C 9.51 g/m*3 12.6 C 0 km/h
974 11-05-2015 09:05:00 12.8 C 9.52 g/m*3 12.8 C 0 km/h
975 11-05-2015 09:10:00 12.9 C 9.35 g/m*3 12.9 C 0 km/h
Sensor: Nr:Datum:Temp:Abs-Feuchte:Windchill:Wind:
Aussen-T/F 976 11-05-2015 09:15:00 13.1 C 9.47 g/m*3 13.1 C 0 km/h
977 11-05-2015 09:20:00 13.3 C 9.59 g/m*3 13.3 C 0 km/h
978 11-05-2015 09:25:00 13.6 C 9.77 g/m*3 13.6 C 0 km/h
979 11-05-2015 09:30:00 13.7 C 9.71 g/m*3 13.7 C 0 km/h
980 11-05-2015 09:35:00 13.9 C 9.83 g/m*3 13.9 C 0 km/h
981 11-05-2015 09:40:00 14.1 C 9.83 g/m*3 14.1 C 0 km/h
982 11-05-2015 09:45:00 14.2 C 9.77 g/m*3 14.2 C 0 km/h
983 11-05-2015 09:50:00 14.3 C 9.71 g/m*3 14.3 C 0 km/h
984 11-05-2015 09:55:00 14.4 C 10.14 g/m*3 14.4 C 0 km/h
985 11-05-2015 10:00:00 14.6 C 10.39 g/m*3 14.6 C 0 km/h
986 11-05-2015 10:05:00 14.7 C 10.32 g/m*3 14.7 C 0 km/h
987 11-05-2015 10:10:00 14.8 C 10.13 g/m*3 14.8 C 0 km/h
988 11-05-2015 10:15:00 15.2 C 10.25 g/m*3 15.2 C 0 km/h
989 11-05-2015 10:20:00 15.6 C 10.51 g/m*3 15.6 C 0 km/h
990 11-05-2015 10:25:00 15.9 C 10.97 g/m*3 15.9 C 0 km/h
991 11-05-2015 10:30:00 16.2 C 10.76 g/m*3 16.2 C 0 km/h
992 11-05-2015 10:35:00 16.3 C 11.1 g/m*3 16.3 C 0 km/h
993 11-05-2015 10:40:00 16.4 C 11.17 g/m*3 16.4 C 0 km/h
994 11-05-2015 10:45:00 16.8 C 11.01 g/m*3 16.8 C 0 km/h
995 11-05-2015 10:50:00 17.3 C 10.75 g/m*3 17.3 C 0 km/h
996 11-05-2015 10:55:00 17.9 C 10.84 g/m*3 17.9 C 0 km/h
997 11-05-2015 11:00:00 18.4 C 10.54 g/m*3 18.4 C 0 km/h
998 11-05-2015 11:05:00 18.8 C 10.79 g/m*3 18.8 C 0 km/h
999 11-05-2015 11:10:00 19.2 C 10.72 g/m*3 19.2 C 3.2 km/h
1000 11-05-2015 11:15:00 19.4 C 10.84 g/m*3 19.4 C 3.2 km/h
Sensor: Nr:Datum:Temp:Abs-Feuchte:Windchill:Wind:
Aussen-T/F 1001 11-05-2015 11:20:00 19.6 C 10.97 g/m*3 19.6 C 6.4 km/h
1002 11-05-2015 11:25:00 19.8 C 11.1 g/m*3 19.8 C 6.4 km/h
1003 11-05-2015 11:30:00 20.1 C 11.13 g/m*3 20.1 C 6.4 km/h
1004 11-05-2015 11:35:00 20.3 C 11.43 g/m*3 20.3 C 1.6 km/h
1005 11-05-2015 11:40:00 20.4 C 10.97 g/m*3 20.4 C 4.8 km/h
1006 11-05-2015 11:45:00 20.6 C 11.28 g/m*3 20.6 C 6.4 km/h
1007 11-05-2015 11:50:00 20.6 C 10.38 g/m*3 20.6 C 6.4 km/h
1008 11-05-2015 11:55:00 20.7 C 11.34 g/m*3 20.7 C 4.8 km/h
1009 11-05-2015 12:00:00 20.9 C 10.93 g/m*3 20.9 C 3.2 km/h
1010 11-05-2015 12:05:00 21.3 C 11 g/m*3 21.3 C 1.6 km/h
1011 11-05-2015 12:10:00 21.6 C 11.38 g/m*3 21.6 C 4.8 km/h
1012 11-05-2015 12:15:00 21.8 C 11.13 g/m*3 21.8 C 6.4 km/h
1013 11-05-2015 12:20:00 22 C 11.06 g/m*3 22 C 4.8 km/h
1014 11-05-2015 12:25:00 22.2 C 11.58 g/m*3 22.2 C 3.2 km/h
1015 11-05-2015 12:30:00 22.5 C 11.98 g/m*3 22.5 C 12.9 km/h
1016 11-05-2015 12:35:00 22.8 C 11.18 g/m*3 22.8 C 12.9 km/h
1017 11-05-2015 12:40:00 22.8 C 10.77 g/m*3 22.8 C 1.6 km/h
1018 11-05-2015 12:45:00 22.8 C 10.97 g/m*3 22.8 C 3.2 km/h
1019 11-05-2015 12:50:00 23.1 C 11.99 g/m*3 23.1 C 6.4 km/h
1020 11-05-2015 12:55:00 23.3 C 11.92 g/m*3 23.3 C 4.8 km/h
1021 11-05-2015 13:00:00 23.4 C 11.57 g/m*3 23.4 C 6.4 km/h
1022 11-05-2015 13:05:00 23.6 C 11.48 g/m*3 23.6 C 9.7 km/h
1023 11-05-2015 13:10:00 23.8 C 11.83 g/m*3 23.8 C 4.8 km/h
1024 11-05-2015 13:15:00 23.8 C 11.4 g/m*3 23.8 C 8.1 km/h
1025 11-05-2015 13:20:00 23.9 C 11.03 g/m*3 23.9 C 6.4 km/h
Sensor: Nr:Datum:Temp:Abs-Feuchte:Windchill:Wind:
Aussen-T/F 1026 11-05-2015 13:25:00 24 C 11.31 g/m*3 24 C 4.8 km/h
1027 11-05-2015 13:30:00 23.9 C 11.47 g/m*3 23.9 C 6.4 km/h
1028 11-05-2015 13:35:00 24.1 C 11.82 g/m*3 24.1 C 4.8 km/h
1029 11-05-2015 13:40:00 24.2 C 11.22 g/m*3 24.2 C 3.2 km/h
1030 11-05-2015 13:45:00 24.3 C 11.06 g/m*3 24.3 C 6.4 km/h
1031 11-05-2015 13:50:00 24.3 C 11.51 g/m*3 24.3 C 4.8 km/h
1032 11-05-2015 13:55:00 24.2 C 11.66 g/m*3 24.2 C 4.8 km/h
1033 11-05-2015 14:00:00 24.3 C 11.73 g/m*3 24.3 C 6.4 km/h
1034 11-05-2015 14:05:00 24.3 C 11.29 g/m*3 24.3 C 6.4 km/h
1035 11-05-2015 14:10:00 24.2 C 12.98 g/m*3 24.2 C 3.2 km/h
1036 11-05-2015 14:15:00 23.9 C 11.47 g/m*3 23.9 C 3.2 km/h
1037 11-05-2015 14:20:00 23.9 C 11.47 g/m*3 23.9 C 3.2 km/h
1038 11-05-2015 14:25:00 23.9 C 12.33 g/m*3 23.9 C 4.8 km/h
1039 11-05-2015 14:30:00 24.2 C 11.66 g/m*3 24.2 C 4.8 km/h
1040 11-05-2015 14:35:00 24.4 C 11.79 g/m*3 24.4 C 6.4 km/h
1041 11-05-2015 14:40:00 24.6 C 11.25 g/m*3 24.6 C 11.3 km/h
1042 11-05-2015 14:45:00 24.9 C 11.67 g/m*3 24.9 C 8.1 km/h
1043 11-05-2015 14:50:00 25.1 C 11.57 g/m*3 25.1 C 8.1 km/h
1044 11-05-2015 14:55:00 25.4 C 11.77 g/m*3 25.4 C 8.1 km/h
1045 11-05-2015 15:00:00 25.4 C 11.54 g/m*3 25.4 C 8.1 km/h
1046 11-05-2015 15:05:00 25.4 C 11.54 g/m*3 25.4 C 6.4 km/h
1047 11-05-2015 15:10:00 25.8 C 12.04 g/m*3 25.8 C 6.4 km/h
1048 11-05-2015 15:15:00 26.3 C 11.64 g/m*3 26.3 C 4.8 km/h
1049 11-05-2015 15:20:00 26.7 C 12.15 g/m*3 26.7 C 8.1 km/h
1050 11-05-2015 15:25:00 26.9 C 11.26 g/m*3 26.9 C 4.8 km/h
Sensor: Nr:Datum:Temp:Abs-Feuchte:Windchill:Wind:
Aussen-T/F 1051 11-05-2015 15:30:00 26.9 C 11.77 g/m*3 26.9 C 8.1 km/h
1052 11-05-2015 15:35:00 26.9 C 11.77 g/m*3 26.9 C 6.4 km/h
1053 11-05-2015 15:40:00 26.9 C 12.03 g/m*3 26.9 C 9.7 km/h
1054 11-05-2015 15:45:00 26.9 C 11.52 g/m*3 26.9 C 3.2 km/h
1055 11-05-2015 15:50:00 26.8 C 11.71 g/m*3 26.8 C 11.3 km/h
1056 11-05-2015 15:55:00 27 C 11.84 g/m*3 27 C 6.4 km/h
1057 11-05-2015 16:00:00 27.2 C 11.19 g/m*3 27.2 C 8.1 km/h
1058 11-05-2015 16:05:00 27.3 C 11.77 g/m*3 27.3 C 8.1 km/h
1059 11-05-2015 16:10:00 27.5 C 11.64 g/m*3 27.5 C 9.7 km/h
1060 11-05-2015 16:15:00 27.2 C 11.19 g/m*3 27.2 C 8.1 km/h
1061 11-05-2015 16:20:00 26.9 C 11.26 g/m*3 26.9 C 9.7 km/h
1062 11-05-2015 16:25:00 26.5 C 10.76 g/m*3 26.5 C 6.4 km/h
1063 11-05-2015 16:30:00 26.1 C 11.75 g/m*3 26.1 C 8.1 km/h
1064 11-05-2015 16:35:00 26 C 10.96 g/m*3 26 C 3.2 km/h
1065 11-05-2015 16:40:00 26.1 C 11.51 g/m*3 26.1 C 1.6 km/h
1066 11-05-2015 16:45:00 26.4 C 11.2 g/m*3 26.4 C 6.4 km/h
1067 11-05-2015 16:50:00 26.3 C 11.39 g/m*3 26.3 C 3.2 km/h
1068 11-05-2015 16:55:00 26.2 C 11.08 g/m*3 26.2 C 6.4 km/h
1069 11-05-2015 17:00:00 26.1 C 11.51 g/m*3 26.1 C 3.2 km/h
1070 11-05-2015 17:05:00 25.7 C 13.65 g/m*3 25.7 C 1.6 km/h
1071 11-05-2015 17:10:00 25.2 C 11.64 g/m*3 25.2 C 1.6 km/h
1072 11-05-2015 17:15:00 25.1 C 11.57 g/m*3 25.1 C 6.4 km/h
1073 11-05-2015 17:20:00 25.3 C 11.47 g/m*3 25.3 C 4.8 km/h
1074 11-05-2015 17:25:00 25.7 C 11.97 g/m*3 25.7 C 8.1 km/h
1075 11-05-2015 17:30:00 26.1 C 11.75 g/m*3 26.1 C 4.8 km/h
Sensor: Nr:Datum:Temp:Abs-Feuchte:Windchill:Wind:
Aussen-T/F 1076 11-05-2015 17:35:00 26.3 C 12.13 g/m*3 26.3 C 6.4 km/h
1077 11-05-2015 17:40:00 26.7 C 11.9 g/m*3 26.7 C 6.4 km/h
1078 11-05-2015 17:45:00 26.9 C 11.26 g/m*3 26.9 C 6.4 km/h
1079 11-05-2015 17:50:00 27.1 C 11.9 g/m*3 27.1 C 9.7 km/h
1080 11-05-2015 17:55:00 27.2 C 12.23 g/m*3 27.2 C 3.2 km/h
1081 11-05-2015 18:00:00 27.2 C 11.45 g/m*3 27.2 C 3.2 km/h
1082 11-05-2015 18:05:00 27.1 C 12.68 g/m*3 27.1 C 4.8 km/h
1083 11-05-2015 18:10:00 27 C 11.58 g/m*3 27 C 3.2 km/h
1084 11-05-2015 18:15:00 26.8 C 12.47 g/m*3 26.8 C 6.4 km/h
1085 11-05-2015 18:20:00 26.7 C 12.4 g/m*3 26.7 C 8.1 km/h
1086 11-05-2015 18:25:00 26.7 C 11.64 g/m*3 26.7 C 3.2 km/h
1087 11-05-2015 18:30:00 26.5 C 13.02 g/m*3 26.5 C 4.8 km/h
1088 11-05-2015 18:35:00 26.4 C 13.44 g/m*3 26.4 C 1.6 km/h
1089 11-05-2015 18:40:00 26.2 C 13.05 g/m*3 26.2 C 1.6 km/h
1090 11-05-2015 18:45:00 26.1 C 13.46 g/m*3 26.1 C 6.4 km/h
1091 11-05-2015 18:50:00 25.6 C 13.33 g/m*3 25.6 C 1.6 km/h
1092 11-05-2015 18:55:00 24.9 C 13.73 g/m*3 24.9 C 1.6 km/h
1093 11-05-2015 19:00:00 24.4 C 13.58 g/m*3 24.4 C 4.8 km/h
1094 11-05-2015 19:05:00 24.1 C 13.57 g/m*3 24.1 C 0 km/h
1095 11-05-2015 19:10:00 23.7 C 13.9 g/m*3 23.7 C 0 km/h
1096 11-05-2015 19:15:00 23.4 C 13.67 g/m*3 23.4 C 1.6 km/h
1097 11-05-2015 19:20:00 23.1 C 13.44 g/m*3 23.1 C 1.6 km/h
1098 11-05-2015 19:25:00 22.7 C 13.54 g/m*3 22.7 C 1.6 km/h
1099 11-05-2015 19:30:00 22.5 C 13.58 g/m*3 22.5 C 1.6 km/h
1100 11-05-2015 19:35:00 22.4 C 13.5 g/m*3 22.4 C 1.6 km/h
Sensor: Nr:Datum:Temp:Abs-Feuchte:Windchill:Wind:
Aussen-T/F 1101 11-05-2015 19:40:00 22.3 C 13.43 g/m*3 22.3 C 1.6 km/h
1102 11-05-2015 19:45:00 21.9 C 13.12 g/m*3 21.9 C 1.6 km/h
1103 11-05-2015 19:50:00 21.5 C 13.01 g/m*3 21.5 C 1.6 km/h
1104 11-05-2015 19:55:00 21.2 C 12.97 g/m*3 21.2 C 1.6 km/h
1105 11-05-2015 20:00:00 20.9 C 12.93 g/m*3 20.9 C 1.6 km/h
1106 11-05-2015 20:05:00 20.8 C 12.86 g/m*3 20.8 C 3.2 km/h
1107 11-05-2015 20:10:00 20.6 C 12.89 g/m*3 20.6 C 1.6 km/h
1108 11-05-2015 20:15:00 20.4 C 12.74 g/m*3 20.4 C 1.6 km/h
1109 11-05-2015 20:20:00 20.2 C 12.59 g/m*3 20.2 C 3.2 km/h
1110 11-05-2015 20:25:00 20.1 C 12.69 g/m*3 20.1 C 1.6 km/h
1111 11-05-2015 20:30:00 19.9 C 12.54 g/m*3 19.9 C 1.6 km/h
1112 11-05-2015 20:35:00 19.8 C 12.47 g/m*3 19.8 C 1.6 km/h
1113 11-05-2015 20:40:00 19.7 C 12.4 g/m*3 19.7 C 3.2 km/h
1114 11-05-2015 20:45:00 19.6 C 12.32 g/m*3 19.6 C 1.6 km/h
1115 11-05-2015 20:50:00 19.4 C 12.18 g/m*3 19.4 C 3.2 km/h
1116 11-05-2015 20:55:00 19.4 C 12.18 g/m*3 19.4 C 1.6 km/h
1117 11-05-2015 21:00:00 19.3 C 12.11 g/m*3 19.3 C 3.2 km/h
1118 11-05-2015 21:05:00 19.2 C 12.04 g/m*3 19.2 C 1.6 km/h
1119 11-05-2015 21:10:00 19 C 12.06 g/m*3 19 C 1.6 km/h
1120 11-05-2015 21:15:00 18.8 C 12.08 g/m*3 18.8 C 0 km/h
1121 11-05-2015 21:20:00 18.7 C 12.01 g/m*3 18.7 C 1.6 km/h
1122 11-05-2015 21:25:00 18.6 C 11.94 g/m*3 18.6 C 1.6 km/h
1123 11-05-2015 21:30:00 18.5 C 11.87 g/m*3 18.5 C 1.6 km/h
1124 11-05-2015 21:35:00 18.4 C 11.95 g/m*3 18.4 C 1.6 km/h
1125 11-05-2015 21:40:00 18.4 C 11.8 g/m*3 18.4 C 0 km/h
Sensor: Nr:Datum:Temp:Abs-Feuchte:Windchill:Wind:
Aussen-T/F 1126 11-05-2015 21:45:00 18.3 C 11.88 g/m*3 18.3 C 1.6 km/h
1127 11-05-2015 21:50:00 18.2 C 11.81 g/m*3 18.2 C 0 km/h
1128 11-05-2015 21:55:00 18.1 C 11.74 g/m*3 18.1 C 1.6 km/h
1129 11-05-2015 22:00:00 17.9 C 11.76 g/m*3 17.9 C 1.6 km/h
1130 11-05-2015 22:05:00 17.8 C 11.69 g/m*3 17.8 C 0 km/h
1131 11-05-2015 22:10:00 17.6 C 11.7 g/m*3 17.6 C 0 km/h
1132 11-05-2015 22:15:00 17.3 C 11.49 g/m*3 17.3 C 0 km/h
1133 11-05-2015 22:20:00 17.2 C 11.42 g/m*3 17.2 C 0 km/h
1134 11-05-2015 22:25:00 17.2 C 11.57 g/m*3 17.2 C 0 km/h
1135 11-05-2015 22:30:00 17.1 C 11.5 g/m*3 17.1 C 0 km/h
1136 11-05-2015 22:35:00 16.9 C 11.36 g/m*3 16.9 C 0 km/h
1137 11-05-2015 22:40:00 16.8 C 11.29 g/m*3 16.8 C 0 km/h
1138 11-05-2015 22:45:00 16.8 C 11.44 g/m*3 16.8 C 0 km/h
1139 11-05-2015 22:50:00 16.7 C 11.23 g/m*3 16.7 C 0 km/h
1140 11-05-2015 22:55:00 16.7 C 11.23 g/m*3 16.7 C 0 km/h
1141 11-05-2015 23:00:00 16.6 C 11.3 g/m*3 16.6 C 0 km/h
1142 11-05-2015 23:05:00 16.5 C 11.23 g/m*3 16.5 C 0 km/h
1143 11-05-2015 23:10:00 16.4 C 11.31 g/m*3 16.4 C 0 km/h
1144 11-05-2015 23:15:00 16.2 C 11.17 g/m*3 16.2 C 0 km/h
1145 11-05-2015 23:20:00 16.1 C 11.24 g/m*3 16.1 C 0 km/h
1146 11-05-2015 23:25:00 15.9 C 11.1 g/m*3 15.9 C 0 km/h
1147 11-05-2015 23:30:00 15.8 C 11.04 g/m*3 15.8 C 0 km/h
1148 11-05-2015 23:35:00 15.7 C 11.11 g/m*3 15.7 C 0 km/h
1149 11-05-2015 23:40:00 15.5 C 10.97 g/m*3 15.5 C 0 km/h
1150 11-05-2015 23:45:00 15.3 C 10.97 g/m*3 15.3 C 0 km/h
Sensor: Nr:Datum:Temp:Abs-Feuchte:Windchill:Wind:
Aussen-T/F 1151 11-05-2015 23:50:00 15.3 C 10.97 g/m*3 15.3 C 0 km/h
1152 11-05-2015 23:55:00 15.3 C 10.97 g/m*3 15.3 C 0 km/h
1153 12-05-2015 00:00:00 15.2 C 10.9 g/m*3 15.2 C 0 km/h
1154 12-05-2015 00:05:00 15.1 C 10.84 g/m*3 15.1 C 0 km/h
1155 12-05-2015 00:10:00 15.1 C 10.84 g/m*3 15.1 C 0 km/h
1156 12-05-2015 00:15:00 15 C 10.77 g/m*3 15 C 0 km/h
1157 12-05-2015 00:20:00 14.9 C 10.71 g/m*3 14.9 C 0 km/h
1158 12-05-2015 00:25:00 14.8 C 10.77 g/m*3 14.8 C 0 km/h
1159 12-05-2015 00:30:00 14.8 C 10.77 g/m*3 14.8 C 0 km/h
1160 12-05-2015 00:35:00 14.7 C 10.7 g/m*3 14.7 C 0 km/h
1161 12-05-2015 00:40:00 14.6 C 10.64 g/m*3 14.6 C 0 km/h
1162 12-05-2015 00:45:00 14.5 C 10.7 g/m*3 14.5 C 0 km/h
1163 12-05-2015 00:50:00 14.4 C 10.63 g/m*3 14.4 C 0 km/h
1164 12-05-2015 00:55:00 14.4 C 10.63 g/m*3 14.4 C 0 km/h
1165 12-05-2015 01:00:00 14.3 C 10.69 g/m*3 14.3 C 0 km/h
1166 12-05-2015 01:05:00 14.2 C 10.62 g/m*3 14.2 C 0 km/h
1167 12-05-2015 01:10:00 14.2 C 10.62 g/m*3 14.2 C 0 km/h
1168 12-05-2015 01:15:00 14.1 C 10.56 g/m*3 14.1 C 0 km/h
1169 12-05-2015 01:20:00 14.1 C 10.68 g/m*3 14.1 C 0 km/h
1170 12-05-2015 01:25:00 13.9 C 10.43 g/m*3 13.9 C 0 km/h
1171 12-05-2015 01:30:00 13.9 C 10.55 g/m*3 13.9 C 0 km/h
1172 12-05-2015 01:35:00 13.9 C 10.55 g/m*3 13.9 C 0 km/h
1173 12-05-2015 01:40:00 13.9 C 10.67 g/m*3 13.9 C 0 km/h
1174 12-05-2015 01:45:00 13.9 C 10.55 g/m*3 13.9 C 0 km/h
1175 12-05-2015 01:50:00 13.8 C 10.48 g/m*3 13.8 C 0 km/h
Sensor: Nr:Datum:Temp:Abs-Feuchte:Windchill:Wind:
Aussen-T/F 1176 12-05-2015 01:55:00 13.8 C 10.6 g/m*3 13.8 C 0 km/h
1177 12-05-2015 02:00:00 13.8 C 10.6 g/m*3 13.8 C 0 km/h
1178 12-05-2015 02:05:00 13.7 C 10.54 g/m*3 13.7 C 0 km/h
1179 12-05-2015 02:10:00 13.7 C 10.54 g/m*3 13.7 C 0 km/h
1180 12-05-2015 02:15:00 13.7 C 10.54 g/m*3 13.7 C 0 km/h
1181 12-05-2015 02:20:00 13.6 C 10.47 g/m*3 13.6 C 0 km/h
1182 12-05-2015 02:25:00 13.6 C 10.59 g/m*3 13.6 C 0 km/h
1183 12-05-2015 02:30:00 13.6 C 10.59 g/m*3 13.6 C 0 km/h
1184 12-05-2015 02:35:00 13.6 C 10.59 g/m*3 13.6 C 0 km/h
1185 12-05-2015 02:40:00 13.6 C 10.59 g/m*3 13.6 C 0 km/h
1186 12-05-2015 02:45:00 13.5 C 10.53 g/m*3 13.5 C 0 km/h
1187 12-05-2015 02:50:00 13.6 C 10.59 g/m*3 13.6 C 0 km/h
1188 12-05-2015 02:55:00 13.5 C 10.53 g/m*3 13.5 C 0 km/h
1189 12-05-2015 03:00:00 13.5 C 10.53 g/m*3 13.5 C 0 km/h
1190 12-05-2015 03:05:00 13.5 C 10.53 g/m*3 13.5 C 0 km/h
1191 12-05-2015 03:10:00 13.4 C 10.46 g/m*3 13.4 C 0 km/h
1192 12-05-2015 03:15:00 13.4 C 10.46 g/m*3 13.4 C 0 km/h
1193 12-05-2015 03:20:00 13.4 C 10.46 g/m*3 13.4 C 0 km/h
1194 12-05-2015 03:25:00 13.3 C 10.4 g/m*3 13.3 C 0 km/h
1195 12-05-2015 03:30:00 13.3 C 10.51 g/m*3 13.3 C 0 km/h
1196 12-05-2015 03:35:00 13.2 C 10.45 g/m*3 13.2 C 0 km/h
1197 12-05-2015 03:40:00 13.2 C 10.45 g/m*3 13.2 C 0 km/h
1198 12-05-2015 03:45:00 13.1 C 10.38 g/m*3 13.1 C 0 km/h
1199 12-05-2015 03:50:00 13.1 C 10.38 g/m*3 13.1 C 0 km/h
1200 12-05-2015 03:55:00 13.1 C 10.5 g/m*3 13.1 C 1.6 km/h
Sensor: Nr:Datum:Temp:Abs-Feuchte:Windchill:Wind:
Aussen-T/F 1201 12-05-2015 04:00:00 13.1 C 10.5 g/m*3 13.1 C 1.6 km/h
1202 12-05-2015 04:05:00 13.1 C 10.38 g/m*3 13.1 C 0 km/h
1203 12-05-2015 04:10:00 13.1 C 10.5 g/m*3 13.1 C 0 km/h
1204 12-05-2015 04:15:00 13.1 C 10.5 g/m*3 13.1 C 0 km/h
1205 12-05-2015 04:20:00 13 C 10.43 g/m*3 13 C 0 km/h
1206 12-05-2015 04:25:00 12.9 C 10.26 g/m*3 12.9 C 0 km/h
1207 12-05-2015 04:30:00 12.9 C 10.37 g/m*3 12.9 C 0 km/h
1208 12-05-2015 04:35:00 12.9 C 10.37 g/m*3 12.9 C 0 km/h
1209 12-05-2015 04:40:00 12.9 C 10.37 g/m*3 12.9 C 0 km/h
1210 12-05-2015 04:45:00 12.9 C 10.37 g/m*3 12.9 C 0 km/h
1211 12-05-2015 04:50:00 12.9 C 10.37 g/m*3 12.9 C 0 km/h
1212 12-05-2015 04:55:00 12.9 C 10.37 g/m*3 12.9 C 0 km/h
1213 12-05-2015 05:00:00 12.9 C 10.37 g/m*3 12.9 C 0 km/h
1214 12-05-2015 05:05:00 12.9 C 10.37 g/m*3 12.9 C 0 km/h
1215 12-05-2015 05:10:00 12.9 C 10.37 g/m*3 12.9 C 0 km/h
1216 12-05-2015 05:15:00 12.9 C 10.37 g/m*3 12.9 C 0 km/h
1217 12-05-2015 05:20:00 12.9 C 10.37 g/m*3 12.9 C 0 km/h
1218 12-05-2015 05:25:00 12.9 C 10.48 g/m*3 12.9 C 0 km/h
1219 12-05-2015 05:30:00 12.9 C 10.48 g/m*3 12.9 C 0 km/h
1220 12-05-2015 05:35:00 12.9 C 10.37 g/m*3 12.9 C 0 km/h
1221 12-05-2015 05:40:00 13 C 10.55 g/m*3 13 C 0 km/h
1222 12-05-2015 05:45:00 13.1 C 10.5 g/m*3 13.1 C 1.6 km/h
1223 12-05-2015 05:50:00 13.1 C 10.5 g/m*3 13.1 C 0 km/h
1224 12-05-2015 05:55:00 13.1 C 10.5 g/m*3 13.1 C 0 km/h
1225 12-05-2015 06:00:00 13.1 C 10.5 g/m*3 13.1 C 0 km/h
Sensor: Nr:Datum:Temp:Abs-Feuchte:Windchill:Wind:
Aussen-T/F 1226 12-05-2015 06:05:00 12.9 C 10.37 g/m*3 12.9 C 0 km/h
1227 12-05-2015 06:10:00 12.9 C 10.37 g/m*3 12.9 C 0 km/h
1228 12-05-2015 06:15:00 12.9 C 10.37 g/m*3 12.9 C 0 km/h
1229 12-05-2015 06:20:00 12.9 C 10.37 g/m*3 12.9 C 0 km/h
1230 12-05-2015 06:25:00 12.8 C 10.3 g/m*3 12.8 C 0 km/h
1231 12-05-2015 06:30:00 12.8 C 10.42 g/m*3 12.8 C 0 km/h
1232 12-05-2015 06:35:00 12.9 C 10.48 g/m*3 12.9 C 0 km/h
1233 12-05-2015 06:40:00 12.9 C 10.48 g/m*3 12.9 C 0 km/h
1234 12-05-2015 06:45:00 13 C 10.55 g/m*3 13 C 0 km/h
1235 12-05-2015 06:50:00 13.1 C 10.61 g/m*3 13.1 C 0 km/h
1236 12-05-2015 06:55:00 13.1 C 10.61 g/m*3 13.1 C 0 km/h
1237 12-05-2015 07:00:00 13.2 C 10.68 g/m*3 13.2 C 0 km/h
1238 12-05-2015 07:05:00 13.2 C 10.68 g/m*3 13.2 C 0 km/h
1239 12-05-2015 07:10:00 13.3 C 10.74 g/m*3 13.3 C 0 km/h
1240 12-05-2015 07:15:00 13.4 C 10.81 g/m*3 13.4 C 0 km/h
1241 12-05-2015 07:20:00 13.4 C 10.81 g/m*3 13.4 C 1.6 km/h
1242 12-05-2015 07:25:00 13.6 C 10.95 g/m*3 13.6 C 1.6 km/h
1243 12-05-2015 07:30:00 13.6 C 10.83 g/m*3 13.6 C 0 km/h
1244 12-05-2015 07:35:00 13.7 C 10.89 g/m*3 13.7 C 0 km/h
1245 12-05-2015 07:40:00 13.8 C 10.96 g/m*3 13.8 C 0 km/h
1246 12-05-2015 07:45:00 13.9 C 11.03 g/m*3 13.9 C 0 km/h
1247 12-05-2015 07:50:00 14.1 C 11.04 g/m*3 14.1 C 0 km/h
1248 12-05-2015 07:55:00 14.2 C 11.11 g/m*3 14.2 C 1.6 km/h
1249 12-05-2015 08:00:00 14.3 C 11.06 g/m*3 14.3 C 3.2 km/h
1250 12-05-2015 08:05:00 14.5 C 11.07 g/m*3 14.5 C 4.8 km/h
Sensor: Nr:Datum:Temp:Abs-Feuchte:Windchill:Wind:
Aussen-T/F 1251 12-05-2015 08:10:00 14.7 C 11.21 g/m*3 14.7 C 0 km/h
1252 12-05-2015 08:15:00 14.8 C 11.27 g/m*3 14.8 C 0 km/h
1253 12-05-2015 08:20:00 15.1 C 11.35 g/m*3 15.1 C 0 km/h
1254 12-05-2015 08:25:00 15.2 C 11.42 g/m*3 15.2 C 1.6 km/h
1255 12-05-2015 08:30:00 15.4 C 11.43 g/m*3 15.4 C 0 km/h
1256 12-05-2015 08:35:00 15.6 C 11.44 g/m*3 15.6 C 1.6 km/h
1257 12-05-2015 08:40:00 15.8 C 11.58 g/m*3 15.8 C 1.6 km/h
1258 12-05-2015 08:45:00 16 C 11.58 g/m*3 16 C 0 km/h
1259 12-05-2015 08:50:00 16.2 C 11.58 g/m*3 16.2 C 0 km/h
1260 12-05-2015 08:55:00 16.4 C 11.86 g/m*3 16.4 C 0 km/h
1261 12-05-2015 09:00:00 16.6 C 12.01 g/m*3 16.6 C 0 km/h
1262 12-05-2015 09:05:00 16.8 C 12.01 g/m*3 16.8 C 0 km/h
1263 12-05-2015 09:10:00 16.9 C 12.23 g/m*3 16.9 C 0 km/h
1264 12-05-2015 09:15:00 17.1 C 12.08 g/m*3 17.1 C 0 km/h
1265 12-05-2015 09:20:00 17.3 C 12.23 g/m*3 17.3 C 0 km/h
1266 12-05-2015 09:25:00 17.4 C 12.45 g/m*3 17.4 C 0 km/h
1267 12-05-2015 09:30:00 17.6 C 12.75 g/m*3 17.6 C 0 km/h
1268 12-05-2015 09:35:00 17.8 C 12.75 g/m*3 17.8 C 0 km/h
1269 12-05-2015 09:40:00 17.9 C 12.98 g/m*3 17.9 C 1.6 km/h
1270 12-05-2015 09:45:00 18.1 C 12.98 g/m*3 18.1 C 1.6 km/h
1271 12-05-2015 09:50:00 18.2 C 12.75 g/m*3 18.2 C 0 km/h
1272 12-05-2015 09:55:00 18.3 C 12.98 g/m*3 18.3 C 0 km/h
1273 12-05-2015 10:00:00 18.6 C 13.37 g/m*3 18.6 C 0 km/h
1274 12-05-2015 10:05:00 18.7 C 13.29 g/m*3 18.7 C 0 km/h
1275 12-05-2015 10:10:00 18.9 C 13.61 g/m*3 18.9 C 0 km/h
Sensor: Nr:Datum:Temp:Abs-Feuchte:Windchill:Wind:
Aussen-T/F 1276 12-05-2015 10:15:00 19.1 C 13.61 g/m*3 19.1 C 0 km/h
1277 12-05-2015 10:20:00 19.3 C 13.77 g/m*3 19.3 C 0 km/h
1278 12-05-2015 10:25:00 19.6 C 14.01 g/m*3 19.6 C 0 km/h
1279 12-05-2015 10:30:00 19.8 C 14.01 g/m*3 19.8 C 0 km/h
1280 12-05-2015 10:35:00 20 C 13.48 g/m*3 20 C 0 km/h
1281 12-05-2015 10:40:00 20.3 C 14.07 g/m*3 20.3 C 0 km/h
1282 12-05-2015 10:45:00 20.7 C 14.22 g/m*3 20.7 C 0 km/h
1283 12-05-2015 10:50:00 20.9 C 14.21 g/m*3 20.9 C 3.2 km/h
1284 12-05-2015 10:55:00 21.2 C 13.9 g/m*3 21.2 C 4.8 km/h
1285 12-05-2015 11:00:00 21.7 C 14.12 g/m*3 21.7 C 6.4 km/h
1286 12-05-2015 11:05:00 22.1 C 14.45 g/m*3 22.1 C 6.4 km/h
1287 12-05-2015 11:10:00 22.4 C 14.3 g/m*3 22.4 C 6.4 km/h
1288 12-05-2015 11:15:00 22.7 C 13.94 g/m*3 22.7 C 6.4 km/h
1289 12-05-2015 11:20:00 22.9 C 14.31 g/m*3 22.9 C 4.8 km/h
1290 12-05-2015 11:25:00 23.1 C 13.85 g/m*3 23.1 C 6.4 km/h
1291 12-05-2015 11:30:00 23.2 C 13.51 g/m*3 23.2 C 6.4 km/h
1292 12-05-2015 11:35:00 23.4 C 12.83 g/m*3 23.4 C 16.1 km/h
1293 12-05-2015 11:40:00 23.6 C 12.97 g/m*3 23.6 C 16.1 km/h
1294 12-05-2015 11:45:00 23.8 C 12.91 g/m*3 23.8 C 14.5 km/h
1295 12-05-2015 11:50:00 24 C 12.62 g/m*3 24 C 16.1 km/h
1296 12-05-2015 11:55:00 24.2 C 12.98 g/m*3 24.2 C 14.5 km/h
1297 12-05-2015 12:00:00 24.3 C 12.83 g/m*3 24.3 C 16.1 km/h
1298 12-05-2015 12:05:00 24.4 C 12.91 g/m*3 24.4 C 12.9 km/h
1299 12-05-2015 12:10:00 24.7 C 13.13 g/m*3 24.7 C 12.9 km/h
1300 12-05-2015 12:15:00 24.9 C 12.82 g/m*3 24.9 C 22.5 km/h
Sensor: Nr:Datum:Temp:Abs-Feuchte:Windchill:Wind:
Aussen-T/F 1301 12-05-2015 12:20:00 25.2 C 13.04 g/m*3 25.2 C 14.5 km/h
1302 12-05-2015 12:25:00 25.3 C 13.11 g/m*3 25.3 C 14.5 km/h
1303 12-05-2015 12:30:00 25.4 C 13.18 g/m*3 25.4 C 16.1 km/h
1304 12-05-2015 12:35:00 25.6 C 13.09 g/m*3 25.6 C 17.7 km/h
1305 12-05-2015 12:40:00 25.8 C 13 g/m*3 25.8 C 11.3 km/h
1306 12-05-2015 12:45:00 25.9 C 13.32 g/m*3 25.9 C 19.3 km/h
1307 12-05-2015 12:50:00 26.2 C 13.79 g/m*3 26.2 C 12.9 km/h
1308 12-05-2015 12:55:00 26.3 C 13.12 g/m*3 26.3 C 9.7 km/h
1309 12-05-2015 13:00:00 26.4 C 13.44 g/m*3 26.4 C 9.7 km/h
1310 12-05-2015 13:05:00 26.7 C 13.42 g/m*3 26.7 C 17.7 km/h
1311 12-05-2015 13:10:00 26.8 C 13.24 g/m*3 26.8 C 16.1 km/h
1312 12-05-2015 13:15:00 26.9 C 13.05 g/m*3 26.9 C 19.3 km/h
1313 12-05-2015 13:20:00 27.1 C 13.2 g/m*3 27.1 C 17.7 km/h
1314 12-05-2015 13:25:00 27.2 C 13.01 g/m*3 27.2 C 11.3 km/h
1315 12-05-2015 13:30:00 27.2 C 13.01 g/m*3 27.2 C 17.7 km/h
1316 12-05-2015 13:35:00 27.2 C 13.27 g/m*3 27.2 C 12.9 km/h
1317 12-05-2015 13:40:00 27.4 C 12.89 g/m*3 27.4 C 11.3 km/h
1318 12-05-2015 13:45:00 27.6 C 13.3 g/m*3 27.6 C 19.3 km/h
1319 12-05-2015 13:50:00 27.6 C 13.3 g/m*3 27.6 C 19.3 km/h
1320 12-05-2015 13:55:00 27.2 C 13.01 g/m*3 27.2 C 11.3 km/h
1321 12-05-2015 14:00:00 26.8 C 13.24 g/m*3 26.8 C 8.1 km/h
1322 12-05-2015 14:05:00 26.7 C 13.42 g/m*3 26.7 C 12.9 km/h
1323 12-05-2015 14:10:00 26.5 C 13.02 g/m*3 26.5 C 8.1 km/h
1324 12-05-2015 14:15:00 26.4 C 13.19 g/m*3 26.4 C 11.3 km/h
1325 12-05-2015 14:20:00 26.4 C 13.44 g/m*3 26.4 C 11.3 km/h
Sensor: Nr:Datum:Temp:Abs-Feuchte:Windchill:Wind:
Aussen-T/F 1326 12-05-2015 14:25:00 26.6 C 13.84 g/m*3 26.6 C 4.8 km/h
1327 12-05-2015 14:30:00 27.1 C 13.72 g/m*3 27.1 C 4.8 km/h
1328 12-05-2015 14:35:00 27.6 C 13.57 g/m*3 27.6 C 12.9 km/h
1329 12-05-2015 14:40:00 28 C 13.87 g/m*3 28 C 14.5 km/h
1330 12-05-2015 14:45:00 28.3 C 13.82 g/m*3 28.3 C 12.9 km/h
1331 12-05-2015 14:50:00 28.2 C 13.75 g/m*3 28.2 C 12.9 km/h
1332 12-05-2015 14:55:00 27.9 C 14.06 g/m*3 27.9 C 12.9 km/h
1333 12-05-2015 15:00:00 27.6 C 13.83 g/m*3 27.6 C 9.7 km/h
1334 12-05-2015 15:05:00 27.3 C 13.87 g/m*3 27.3 C 9.7 km/h
1335 12-05-2015 15:10:00 27.2 C 13.79 g/m*3 27.2 C 8.1 km/h
1336 12-05-2015 15:15:00 27.2 C 14.05 g/m*3 27.2 C 16.1 km/h
1337 12-05-2015 15:20:00 26.4 C 13.69 g/m*3 26.4 C 17.7 km/h
1338 12-05-2015 15:25:00 25.1 C 13.43 g/m*3 25.1 C 22.5 km/h
1339 12-05-2015 15:30:00 23.9 C 13.63 g/m*3 23.9 C 25.7 km/h
1340 12-05-2015 15:35:00 23.1 C 14.06 g/m*3 23.1 C 16.1 km/h
1341 12-05-2015 15:40:00 22.7 C 14.34 g/m*3 22.7 C 9.7 km/h
1342 12-05-2015 15:45:00 22.4 C 14.3 g/m*3 22.4 C 6.4 km/h
1343 12-05-2015 15:50:00 22.1 C 14.45 g/m*3 22.1 C 9.7 km/h
1344 12-05-2015 15:55:00 21.9 C 14.28 g/m*3 21.9 C 4.8 km/h
1345 12-05-2015 16:00:00 22.1 C 14.45 g/m*3 22.1 C 4.8 km/h
1346 12-05-2015 16:05:00 22.1 C 14.05 g/m*3 22.1 C 4.8 km/h
1347 12-05-2015 16:10:00 21.8 C 14.2 g/m*3 21.8 C 6.4 km/h
1348 12-05-2015 16:15:00 21.7 C 14.88 g/m*3 21.7 C 1.6 km/h
1349 12-05-2015 16:20:00 21.5 C 15.09 g/m*3 21.5 C 4.8 km/h
1350 12-05-2015 16:25:00 21.2 C 14.83 g/m*3 21.2 C 6.4 km/h
Sensor: Nr:Datum:Temp:Abs-Feuchte:Windchill:Wind:
Aussen-T/F 1351 12-05-2015 16:30:00 20.8 C 15.21 g/m*3 20.8 C 1.6 km/h
1352 12-05-2015 16:35:00 20.5 C 15.12 g/m*3 20.5 C 0 km/h
1353 12-05-2015 16:40:00 20.2 C 14.86 g/m*3 20.2 C 1.6 km/h
1354 12-05-2015 16:45:00 19.9 C 14.6 g/m*3 19.9 C 4.8 km/h
1355 12-05-2015 16:50:00 19.8 C 14.86 g/m*3 19.8 C 0 km/h
1356 12-05-2015 16:55:00 19.8 C 14.69 g/m*3 19.8 C 0 km/h
1357 12-05-2015 17:00:00 19.7 C 14.43 g/m*3 19.7 C 1.6 km/h
1358 12-05-2015 17:05:00 19.6 C 14.52 g/m*3 19.6 C 1.6 km/h
1359 12-05-2015 17:10:00 19.4 C 14.18 g/m*3 19.4 C 0 km/h
1360 12-05-2015 17:15:00 19.1 C 14.1 g/m*3 19.1 C 1.6 km/h
1361 12-05-2015 17:20:00 18.9 C 14.09 g/m*3 18.9 C 9.7 km/h
1362 12-05-2015 17:25:00 18.8 C 13.53 g/m*3 18.8 C 8.1 km/h
1363 12-05-2015 17:30:00 19.2 C 12.86 g/m*3 19.2 C 11.3 km/h
1364 12-05-2015 17:35:00 19.4 C 13.18 g/m*3 19.4 C 3.2 km/h
1365 12-05-2015 17:40:00 19.3 C 13.27 g/m*3 19.3 C 3.2 km/h
1366 12-05-2015 17:45:00 19.2 C 12.37 g/m*3 19.2 C 4.8 km/h
1367 12-05-2015 17:50:00 19.3 C 12.44 g/m*3 19.3 C 3.2 km/h
1368 12-05-2015 17:55:00 19.3 C 11.28 g/m*3 19.3 C 4.8 km/h
1369 12-05-2015 18:00:00 19.4 C 11.51 g/m*3 19.4 C 9.7 km/h
1370 12-05-2015 18:05:00 19.4 C 11.18 g/m*3 19.4 C 3.2 km/h
1371 12-05-2015 18:10:00 19.3 C 11.94 g/m*3 19.3 C 1.6 km/h
1372 12-05-2015 18:15:00 19.1 C 10.98 g/m*3 19.1 C 6.4 km/h
1373 12-05-2015 18:20:00 18.9 C 10.69 g/m*3 18.9 C 4.8 km/h
1374 12-05-2015 18:25:00 18.9 C 10.53 g/m*3 18.9 C 14.5 km/h
1375 12-05-2015 18:30:00 19 C 10.1 g/m*3 19 C 1.6 km/h
Sensor: Nr:Datum:Temp:Abs-Feuchte:Windchill:Wind:
Aussen-T/F 1376 12-05-2015 18:35:00 19.2 C 10.39 g/m*3 19.2 C 9.7 km/h
1377 12-05-2015 18:40:00 19.3 C 10.28 g/m*3 19.3 C 16.1 km/h
1378 12-05-2015 18:45:00 19.4 C 10.18 g/m*3 19.4 C 16.1 km/h
1379 12-05-2015 18:50:00 19.6 C 10.3 g/m*3 19.6 C 8.1 km/h
1380 12-05-2015 18:55:00 19.6 C 9.96 g/m*3 19.6 C 11.3 km/h
1381 12-05-2015 19:00:00 19.7 C 9.85 g/m*3 19.7 C 11.3 km/h
1382 12-05-2015 19:05:00 19.8 C 10.08 g/m*3 19.8 C 12.9 km/h
1383 12-05-2015 19:10:00 19.9 C 10.14 g/m*3 19.9 C 9.7 km/h
1384 12-05-2015 19:15:00 19.8 C 10.08 g/m*3 19.8 C 8.1 km/h
1385 12-05-2015 19:20:00 19.7 C 9.68 g/m*3 19.7 C 9.7 km/h
1386 12-05-2015 19:25:00 19.6 C 9.79 g/m*3 19.6 C 11.3 km/h
1387 12-05-2015 19:30:00 19.6 C 9.79 g/m*3 19.6 C 16.1 km/h
1388 12-05-2015 19:35:00 19.7 C 10.02 g/m*3 19.7 C 11.3 km/h
1389 12-05-2015 19:40:00 19.8 C 9.91 g/m*3 19.8 C 19.3 km/h
1390 12-05-2015 19:45:00 19.8 C 9.91 g/m*3 19.8 C 11.3 km/h
1391 12-05-2015 19:50:00 19.8 C 9.57 g/m*3 19.8 C 11.3 km/h
1392 12-05-2015 19:55:00 19.7 C 9.68 g/m*3 19.7 C 11.3 km/h
1393 12-05-2015 20:00:00 19.7 C 9.68 g/m*3 19.7 C 3.2 km/h
1394 12-05-2015 20:05:00 19.6 C 9.45 g/m*3 19.6 C 14.5 km/h
1395 12-05-2015 20:10:00 19.4 C 9.34 g/m*3 19.4 C 8.1 km/h
1396 12-05-2015 20:15:00 19.3 C 9.29 g/m*3 19.3 C 6.4 km/h
1397 12-05-2015 20:20:00 19.1 C 9.02 g/m*3 19.1 C 4.8 km/h
1398 12-05-2015 20:25:00 18.9 C 9.07 g/m*3 18.9 C 12.9 km/h
1399 12-05-2015 20:30:00 18.7 C 9.45 g/m*3 18.7 C 11.3 km/h
1400 12-05-2015 20:35:00 18.5 C 9.18 g/m*3 18.5 C 6.4 km/h
Sensor: Nr:Datum:Temp:Abs-Feuchte:Windchill:Wind:
Aussen-T/F 1401 12-05-2015 20:40:00 18.2 C 9.17 g/m*3 18.2 C 12.9 km/h
1402 12-05-2015 20:45:00 18 C 9.37 g/m*3 18 C 16.1 km/h
1403 12-05-2015 20:50:00 17.8 C 9.41 g/m*3 17.8 C 17.7 km/h
1404 12-05-2015 20:55:00 17.6 C 9.45 g/m*3 17.6 C 16.1 km/h
1405 12-05-2015 21:00:00 17.4 C 9.34 g/m*3 17.4 C 6.4 km/h
1406 12-05-2015 21:05:00 17.2 C 9.37 g/m*3 17.2 C 8.1 km/h
1407 12-05-2015 21:10:00 17.1 C 9.17 g/m*3 17.1 C 12.9 km/h
1408 12-05-2015 21:15:00 16.9 C 9.21 g/m*3 16.9 C 8.1 km/h
1409 12-05-2015 21:20:00 16.9 C 9.21 g/m*3 16.9 C 11.3 km/h
1410 12-05-2015 21:25:00 16.8 C 9.15 g/m*3 16.8 C 6.4 km/h
1411 12-05-2015 21:30:00 16.6 C 9.18 g/m*3 16.6 C 11.3 km/h
1412 12-05-2015 21:35:00 16.4 C 9.07 g/m*3 16.4 C 9.7 km/h
1413 12-05-2015 21:40:00 16.4 C 8.93 g/m*3 16.4 C 6.4 km/h
1414 12-05-2015 21:45:00 16.4 C 9.07 g/m*3 16.4 C 6.4 km/h
1415 12-05-2015 21:50:00 16.3 C 9.02 g/m*3 16.3 C 11.3 km/h
1416 12-05-2015 21:55:00 16.2 C 8.96 g/m*3 16.2 C 6.4 km/h
1417 12-05-2015 22:00:00 16.2 C 8.55 g/m*3 16.2 C 11.3 km/h
1418 12-05-2015 22:05:00 16.1 C 8.77 g/m*3 16.1 C 3.2 km/h
1419 12-05-2015 22:10:00 15.8 C 8.48 g/m*3 15.8 C 1.6 km/h
1420 12-05-2015 22:15:00 15.8 C 8.35 g/m*3 15.8 C 8.1 km/h
1421 12-05-2015 22:20:00 15.8 C 8.08 g/m*3 15.8 C 8.1 km/h
1422 12-05-2015 22:25:00 15.8 C 7.94 g/m*3 15.8 C 1.6 km/h
1423 12-05-2015 22:30:00 15.7 C 7.89 g/m*3 15.7 C 6.4 km/h
1424 12-05-2015 22:35:00 15.4 C 7.88 g/m*3 15.4 C 4.8 km/h
1425 12-05-2015 22:40:00 15.2 C 8.18 g/m*3 15.2 C 1.6 km/h
Sensor: Nr:Datum:Temp:Abs-Feuchte:Windchill:Wind:
Aussen-T/F 1426 12-05-2015 22:45:00 14.9 C 7.9 g/m*3 14.9 C 3.2 km/h
1427 12-05-2015 22:50:00 14.7 C 7.93 g/m*3 14.7 C 1.6 km/h
1428 12-05-2015 22:55:00 14.4 C 7.54 g/m*3 14.4 C 1.6 km/h
1429 12-05-2015 23:00:00 14.4 C 7.91 g/m*3 14.4 C 0 km/h
1430 12-05-2015 23:05:00 14.3 C 7.74 g/m*3 14.3 C 4.8 km/h
1431 12-05-2015 23:10:00 14.3 C 7.74 g/m*3 14.3 C 1.6 km/h
1432 12-05-2015 23:15:00 14.2 C 7.94 g/m*3 14.2 C 3.2 km/h
1433 12-05-2015 23:20:00 14.2 C 7.57 g/m*3 14.2 C 4.8 km/h
1434 12-05-2015 23:25:00 14.2 C 7.45 g/m*3 14.2 C 8.1 km/h
1435 12-05-2015 23:30:00 14.3 C 7.62 g/m*3 14.3 C 8.1 km/h
1436 12-05-2015 23:35:00 14.5 C 7.46 g/m*3 14.5 C 14.5 km/h
1437 12-05-2015 23:40:00 14.6 C 7.51 g/m*3 14.6 C 3.2 km/h
1438 12-05-2015 23:45:00 14.4 C 7.42 g/m*3 14.4 C 8.1 km/h
1439 12-05-2015 23:50:00 14.3 C 7.62 g/m*3 14.3 C 4.8 km/h
1440 12-05-2015 23:55:00 14.1 C 7.65 g/m*3 14.1 C 6.4 km/h

Legende:
   Min
   Max


Maximal/Minimal-Werte vom 08.05.2015 - 12.05.2015

Sensor Min Max Avg
Temp
(Aussen-T/F)
7.7 °C
08-05-2015  06:05:00
28.3 °C
12-05-2015  14:45:00
15.93 °C
Abs-Feuchte
(Aussen-T/F)
6.75 g/m*3
08-05-2015  00:30:00
15.21 g/m*3
12-05-2015  16:30:00
9.78 g/m*3
Windchill
(Aussen-T/F)
7.7 C
08-05-2015  06:05:00
28.3 C
12-05-2015  14:45:00
15.91 C

Die Daten stammen von einer Davis Vantage Pro 2 Wetter-Station und werden unter Linux mit der Software wview2wettercgi und aufbereitet. Alle Angaben erfolgen ohne Gewähr für ihre Vollständigkeit oder Richtigkeit.
Kontakt: Rainer Krienke krienke@uni-koblenz.de . Meine Webseiten an der Uni Koblenz oder privat.
Version: $Revision: 0.78 $